M I D A S
Marine Information and Data Acquisition System
Tripno 1728 of the Zeeleeuw from 2009-07-01 08:36:45 to 2009-07-01 14:22:57
Back to CruiseResearch ActivitiesStationsMapUnderway DataData graphs

EquipmentUnitsComment
TimeDGPSUTC
LatitudeDGPSDM.mWGS84
LongitudeDGPSDM.mWGS84
TemperatureSBE03/SBE38deg celciusITS90
ConductivitySBE21S/mITS90
SalinitySBE21 Practical Salinity Units
ChlorophylAChelsea fluorimeterg/lCalibrated in Aceton
Missing or incorrect values are displayed as -999
Sea surface data collected by the RV Zeeleeuw from 2009-07-01 08:30:22 to 2009-07-01 14:34:10
                                                                                    Next 1000 lines
Time Latitude Longitude Temperature Conductivity Salinity ChlorophylA
2009-07-01 08:30:31 51°13.662 2°55.956 23.8726 0.032431 0.165054 10.561018
2009-07-01 08:30:35 51°13.662 2°55.954 23.8879 0.032843 0.167154 10.561018
2009-07-01 08:30:41 51°13.663 2°55.95 23.897 0.033049 0.16821 10.561018
2009-07-01 08:30:46 51°13.664 2°55.947 23.8871 0.033254 0.169258 10.561018
2009-07-01 08:30:51 51°13.665 2°55.944 23.8781 0.032637 0.166107 10.561018
2009-07-01 08:30:57 51°13.666 2°55.938 23.9001 0.032843 0.167157 10.561018
2009-07-01 08:31:02 51°13.668 2°55.933 23.9097 0.032843 0.167157 10.561018
2009-07-01 08:31:08 51°13.67 2°55.926 23.9132 0.033049 0.16821 10.561018
2009-07-01 08:31:14 51°13.672 2°55.918 23.9213 0.032946 0.167684 10.526194
2009-07-01 08:31:19 51°13.674 2°55.911 23.9372 0.033152 0.168738 10.526194
2009-07-01 08:31:25 51°13.676 2°55.902 23.939 0.033049 0.168212 10.526194
2009-07-01 08:31:30 51°13.678 2°55.894 23.9462 0.033049 0.168215 10.526194
2009-07-01 08:31:35 51°13.68 2°55.885 23.9388 0.033049 0.168215 10.526194
2009-07-01 08:31:40 51°13.682 2°55.877 23.933 0.033152 0.16874 10.526194
2009-07-01 08:31:45 51°13.684 2°55.867 23.9532 0.033254 0.169268 10.526194
2009-07-01 08:31:50 51°13.686 2°55.858 23.957 0.03346 0.170322 10.526194
2009-07-01 08:31:55 51°13.688 2°55.849 23.953 0.033357 0.169796 10.526194
2009-07-01 08:32:00 51°13.69 2°55.841 23.9539 0.033563 0.170848 10.49137
2009-07-01 08:32:05 51°13.692 2°55.832 23.9556 0.033563 0.170848 10.49137
2009-07-01 08:32:10 51°13.693 2°55.823 23.953 0.033563 0.170848 10.526194
2009-07-01 08:32:15 51°13.695 2°55.815 23.9536 0.033872 0.172428 10.49137
2009-07-01 08:32:20 51°13.696 2°55.806 23.9469 0.033563 0.17085 10.49137
2009-07-01 08:32:25 51°13.697 2°55.799 23.9471 0.033254 0.169271 10.526194
2009-07-01 08:32:30 51°13.698 2°55.79 23.9457 0.033152 0.168743 10.526194
2009-07-01 08:32:35 51°13.699 2°55.782 23.9503 0.033152 0.168743 10.526194
2009-07-01 08:32:40 51°13.7 2°55.775 23.954 0.033563 0.170845 10.49137
2009-07-01 08:32:45 51°13.701 2°55.768 23.9741 0.033769 0.171902 10.49137
2009-07-01 08:32:50 51°13.702 2°55.763 23.9595 0.033152 0.168748 10.49137
2009-07-01 08:32:55 51°13.702 2°55.76 23.9787 0.034901 0.177706 10.49137
2009-07-01 08:33:00 51°13.703 2°55.758 23.9764 0.034798 0.177182 10.49137
2009-07-01 08:33:05 51°13.703 2°55.758 23.9732 0.034798 0.177182 10.49137
2009-07-01 08:33:10 51°13.703 2°55.759 23.9625 0.034592 0.176134 10.49137
2009-07-01 08:33:15 51°13.704 2°55.76 23.9218 0.034592 0.176134 10.49137
2009-07-01 08:33:20 51°13.704 2°55.761 23.8977 0.033357 0.169807 10.49137
2009-07-01 08:33:25 51°13.705 2°55.761 23.8541 0.033152 0.168751 10.49137
2009-07-01 08:33:30 51°13.705 2°55.761 23.805 0.032637 0.166114 10.456545
2009-07-01 08:33:35 51°13.705 2°55.76 23.832 0.032637 0.166114 10.456545
2009-07-01 08:33:39 51°13.705 2°55.759 23.8497 0.03274 0.166639 10.456545
2009-07-01 08:33:44 51°13.704 2°55.758 23.892 0.033049 0.168212 10.456545
2009-07-01 08:33:49 51°13.704 2°55.755 23.887 0.033049 0.168217 10.456545
2009-07-01 08:33:54 51°13.703 2°55.753 23.9068 0.03346 0.170322 10.456545
2009-07-01 08:33:59 51°13.702 2°55.751 23.9062 0.033666 0.171373 10.456545
2009-07-01 08:34:04 51°13.701 2°55.749 23.8964 0.033666 0.171373 10.456545
2009-07-01 08:34:09 51°13.701 2°55.747 23.9396 0.033666 0.171373 10.456545
2009-07-01 08:34:14 51°13.701 2°55.746 23.9688 0.03521 0.179288 10.456545
2009-07-01 08:34:19 51°13.702 2°55.746 23.9908 0.035004 0.178242 10.456545
2009-07-01 08:34:24 51°13.703 2°55.747 23.9437 0.035107 0.178786 10.456545
2009-07-01 08:34:29 51°13.705 2°55.748 23.973 0.035415 0.180367 10.456545
2009-07-01 08:34:34 51°13.708 2°55.749 23.9751 0.035415 0.180367 10.456545
2009-07-01 08:34:38 51°13.71 2°55.749 23.9661 0.035827 0.182489 10.456545
2009-07-01 08:34:43 51°13.714 2°55.75 23.9705 0.035107 0.178794 10.421721
2009-07-01 08:34:48 51°13.718 2°55.749 23.971 0.036547 0.186195 10.421721
2009-07-01 08:34:53 51°13.722 2°55.748 23.9827 0.036342 0.185141 10.421721
2009-07-01 08:34:58 51°13.726 2°55.746 23.9648 0.035827 0.182492 10.421721
2009-07-01 08:35:03 51°13.731 2°55.743 23.9131 0.035827 0.182492 10.421721
2009-07-01 08:35:07 51°13.734 2°55.74 23.9042 0.035518 0.180892 10.421721
2009-07-01 08:35:12 51°13.74 2°55.736 23.9003 0.035313 0.179829 10.421721
2009-07-01 08:35:17 51°13.746 2°55.73 23.8933 0.035621 0.181403 10.421721
2009-07-01 08:35:22 51°13.752 2°55.725 23.8888 0.034695 0.176653 10.421721
2009-07-01 08:35:27 51°13.76 2°55.718 23.8315 0.034798 0.177177 10.421721
2009-07-01 08:35:32 51°13.767 2°55.71 23.8622 0.034798 0.177177 10.421721
2009-07-01 08:35:37 51°13.775 2°55.703 23.8376 0.034386 0.175065 10.386897
2009-07-01 08:35:42 51°13.784 2°55.694 23.8046 0.033152 0.168745 10.386897
2009-07-01 08:35:46 51°13.791 2°55.688 23.8348 0.03346 0.170317 10.386897
2009-07-01 08:35:51 51°13.8 2°55.679 23.9146 0.035313 0.179809 10.386897
2009-07-01 08:35:56 51°13.809 2°55.671 23.925 0.033975 0.172968 10.386897
2009-07-01 08:36:01 51°13.819 2°55.662 23.8812 0.033975 0.172968 10.386897
2009-07-01 08:36:06 51°13.829 2°55.652 23.8716 0.034695 0.176647 10.386897
2009-07-01 08:36:11 51°13.839 2°55.643 23.8814 0.033769 0.171907 10.386897
2009-07-01 08:36:17 51°13.852 2°55.631 23.8085 0.032534 0.165595 10.386897
2009-07-01 08:36:22 51°13.863 2°55.621 23.8268 0.032843 0.167167 10.386897
2009-07-01 08:36:27 51°13.874 2°55.612 23.818 0.032637 0.166112 10.352073
2009-07-01 08:36:32 51°13.884 2°55.603 23.8271 0.032637 0.166112 10.352073
2009-07-01 08:36:37 51°13.895 2°55.593 23.8475 0.032946 0.167687 10.352073
2009-07-01 08:36:42 51°13.906 2°55.584 23.8559 0.03274 0.166642 10.386897
2009-07-01 08:36:47 51°13.917 2°55.574 23.8665 0.033666 0.171371 10.352073
2009-07-01 08:36:53 51°13.93 2°55.563 23.875 0.033049 0.16822 10.352073
2009-07-01 08:36:58 51°13.941 2°55.554 23.8777 0.033049 0.16822 10.352073
2009-07-01 08:37:05 51°13.956 2°55.541 23.8871 0.033049 0.16822 10.352073
2009-07-01 08:37:10 51°13.967 2°55.532 23.8904 0.033152 0.168745 10.352073
2009-07-01 08:37:15 51°13.978 2°55.523 23.8931 0.033666 0.171376 10.352073
2009-07-01 08:37:19 51°13.987 2°55.516 23.9006 0.033254 0.169273 10.352073
2009-07-01 08:37:24 51°13.998 2°55.507 23.8972 0.033357 0.169796 10.352073
2009-07-01 08:37:29 51°14.009 2°55.498 23.8992 0.033357 0.169796 10.352073
2009-07-01 08:37:34 51°14.02 2°55.489 23.9041 0.033357 0.169796 10.352073
2009-07-01 08:37:39 51°14.031 2°55.481 23.8997 0.033152 0.168743 10.317249
2009-07-01 08:37:44 51°14.042 2°55.472 23.9049 0.033563 0.170842 10.317249
2009-07-01 08:37:49 51°14.053 2°55.464 23.9195 0.033563 0.170845 10.317249
2009-07-01 08:37:54 51°14.064 2°55.455 23.9096 0.03346 0.170317 10.317249
2009-07-01 08:37:58 51°14.073 2°55.448 23.9106 0.033769 0.171894 10.317249
2009-07-01 08:38:03 51°14.084 2°55.439 23.914 0.033769 0.171894 10.317249
2009-07-01 08:38:08 51°14.095 2°55.431 23.9147 0.03346 0.170314 10.317249
2009-07-01 08:38:13 51°14.106 2°55.422 23.9194 0.033872 0.17242 10.317249
2009-07-01 08:38:18 51°14.117 2°55.414 23.9352 0.034078 0.173475 10.317249
2009-07-01 08:38:22 51°14.126 2°55.407 23.9354 0.033666 0.171373 10.317249
2009-07-01 08:38:27 51°14.137 2°55.398 23.9238 0.034181 0.174004 10.317249
2009-07-01 08:38:32 51°14.148 2°55.389 23.9481 0.034181 0.174004 10.317249
2009-07-01 08:38:37 51°14.158 2°55.379 23.9337 0.034489 0.175591 10.317249
2009-07-01 08:38:42 51°14.169 2°55.369 23.9409 0.034181 0.174015 10.317249
2009-07-01 08:38:47 51°14.179 2°55.358 23.9349 0.034181 0.174015 10.317249
2009-07-01 08:38:51 51°14.187 2°55.349 23.9372 0.034284 0.174541 10.282425
2009-07-01 08:38:56 51°14.197 2°55.338 23.9382 0.034181 0.174012 10.282425
2009-07-01 08:39:02 51°14.209 2°55.323 23.9399 0.034181 0.174012 10.282425
2009-07-01 08:39:06 51°14.217 2°55.313 23.9167 0.034592 0.176118 10.282425
2009-07-01 08:39:11 51°14.226 2°55.3 23.9365 0.034592 0.176115 10.282425
2009-07-01 08:39:16 51°14.235 2°55.287 23.933 0.035004 0.178228 10.282425
2009-07-01 08:39:22 51°14.245 2°55.27 23.906 0.033563 0.17085 10.282425
2009-07-01 08:39:26 51°14.252 2°55.258 23.8477 0.033666 0.171366 10.282425
2009-07-01 08:39:31 51°14.26 2°55.243 23.8729 0.033666 0.171366 10.282425
2009-07-01 08:39:36 51°14.269 2°55.229 23.8944 0.033769 0.171889 10.282425
2009-07-01 08:39:41 51°14.277 2°55.214 23.8832 0.034078 0.173472 10.282425
2009-07-01 08:39:46 51°14.285 2°55.199 23.889 0.033563 0.17084 10.247601
2009-07-01 08:39:51 51°14.294 2°55.185 23.8707 0.033563 0.17084 10.247601
2009-07-01 08:39:56 51°14.302 2°55.17 23.8873 0.033357 0.169786 10.247601
2009-07-01 08:40:01 51°14.31 2°55.155 23.8903 0.033357 0.169786 10.247601
2009-07-01 08:40:06 51°14.319 2°55.14 23.9078 0.033357 0.169783 10.247601
2009-07-01 08:40:11 51°14.327 2°55.126 23.9059 0.033872 0.17242 10.247601
2009-07-01 08:40:16 51°14.336 2°55.111 23.9074 0.033152 0.16874 10.247601
2009-07-01 08:40:22 51°14.347 2°55.094 23.9068 0.033254 0.169268 10.247601
2009-07-01 08:40:26 51°14.354 2°55.083 23.8832 0.033563 0.170848 10.247601
2009-07-01 08:40:30 51°14.361 2°55.072 23.8859 0.033563 0.170848 10.247601
2009-07-01 08:40:36 51°14.372 2°55.056 23.9004 0.033666 0.171376 10.247601
2009-07-01 08:40:42 51°14.384 2°55.041 23.8965 0.033357 0.169802 10.247601
2009-07-01 08:40:46 51°14.392 2°55.031 23.924 0.034284 0.174538 10.247601
2009-07-01 08:40:50 51°14.4 2°55.022 23.924 0.034592 0.176123 10.212777
2009-07-01 08:40:56 51°14.413 2°55.007 23.92 0.034284 0.174546 10.212777
2009-07-01 08:41:02 51°14.426 2°54.994 23.9108 0.034284 0.174546 10.212777
2009-07-01 08:41:06 51°14.435 2°54.984 23.9191 0.034181 0.17402 10.212777
2009-07-01 08:41:11 51°14.446 2°54.973 23.9108 0.034489 0.17561 10.212777
2009-07-01 08:41:16 51°14.457 2°54.962 23.9171 0.033975 0.172986 10.212777
2009-07-01 08:41:21 51°14.468 2°54.951 23.9313 0.034078 0.173502 10.212777
2009-07-01 08:41:26 51°14.48 2°54.94 23.893 0.033769 0.171915 10.212777
2009-07-01 08:41:31 51°14.492 2°54.929 23.8893 0.033769 0.171915 10.212777
2009-07-01 08:41:36 51°14.503 2°54.918 23.8983 0.033357 0.169802 10.212777
2009-07-01 08:41:42 51°14.518 2°54.903 23.9097 0.034592 0.176118 10.212777
2009-07-01 08:41:46 51°14.528 2°54.894 23.9151 0.034386 0.17507 10.212777
2009-07-01 08:41:51 51°14.541 2°54.882 23.8767 0.033152 0.168761 10.177953
2009-07-01 08:41:56 51°14.553 2°54.87 23.8916 0.033357 0.169807 10.177953
2009-07-01 08:42:01 51°14.566 2°54.858 23.9067 0.033357 0.169807 10.177953
2009-07-01 08:42:06 51°14.578 2°54.847 23.8935 0.034181 0.174015 10.177953
2009-07-01 08:42:11 51°14.591 2°54.835 23.8947 0.033769 0.17191 10.177953
2009-07-01 08:42:16 51°14.604 2°54.823 23.9167 0.033975 0.172959 10.177953
2009-07-01 08:42:21 51°14.618 2°54.811 23.8994 0.033769 0.171915 10.177953
2009-07-01 08:42:26 51°14.631 2°54.798 23.8925 0.033254 0.169287 10.177953
2009-07-01 08:42:31 51°14.644 2°54.786 23.8912 0.033254 0.169287 10.177953
2009-07-01 08:42:36 51°14.658 2°54.773 23.9022 0.034078 0.173496 10.143129
2009-07-01 08:42:42 51°14.674 2°54.759 23.902 0.033666 0.171392 10.177953
2009-07-01 08:42:46 51°14.685 2°54.749 23.8973 0.03274 0.16666 10.143129
2009-07-01 08:42:50 51°14.696 2°54.739 23.8844 0.033049 0.168233 10.177953
2009-07-01 08:42:56 51°14.712 2°54.724 23.9199 0.033254 0.169287 10.143129
2009-07-01 08:43:01 51°14.726 2°54.711 23.895 0.033254 0.169287 10.143129
2009-07-01 08:43:06 51°14.739 2°54.698 23.8956 0.033666 0.171395 10.143129
2009-07-01 08:43:11 51°14.752 2°54.686 23.8874 0.032843 0.167188 10.143129
2009-07-01 08:43:16 51°14.766 2°54.673 23.9057 0.033769 0.171923 10.143129
2009-07-01 08:43:22 51°14.782 2°54.658 23.9071 0.032843 0.16719 10.143129
2009-07-01 08:43:26 51°14.793 2°54.648 23.9101 0.033049 0.168241 10.143129
2009-07-01 08:43:31 51°14.807 2°54.635 23.9236 0.033049 0.168241 10.143129
2009-07-01 08:43:36 51°14.82 2°54.622 23.8996 0.03346 0.170338 10.143129
2009-07-01 08:43:41 51°14.834 2°54.609 23.8938 0.033357 0.169817 10.143129
2009-07-01 08:43:46 51°14.847 2°54.597 23.8882 0.033769 0.171918 10.108305
2009-07-01 08:43:51 51°14.861 2°54.585 23.9086 0.032637 0.166132 10.143129
2009-07-01 08:43:56 51°14.875 2°54.572 23.8725 0.03274 0.166657 10.108305
2009-07-01 08:44:01 51°14.889 2°54.559 23.8915 0.03274 0.166657 10.108305
2009-07-01 08:44:06 51°14.902 2°54.547 23.8841 0.032946 0.167703 10.143129
2009-07-01 08:44:11 51°14.915 2°54.535 23.8936 0.03274 0.166655 10.108305
2009-07-01 08:44:15 51°14.926 2°54.526 23.8888 0.03274 0.166655 10.108305
2009-07-01 08:44:21 51°14.943 2°54.512 23.9208 0.033666 0.171395 10.108305
2009-07-01 08:44:26 51°14.957 2°54.501 23.896 0.033254 0.169302 10.108305
2009-07-01 08:44:31 51°14.971 2°54.488 23.9183 0.033254 0.169302 10.108305
2009-07-01 08:44:36 51°14.985 2°54.476 23.9142 0.033357 0.169836 10.108305
2009-07-01 08:44:41 51°14.999 2°54.464 23.903 0.03346 0.170364 10.108305
2009-07-01 08:44:46 51°15.013 2°54.452 23.9218 0.033049 0.168256 10.108305
2009-07-01 08:44:51 51°15.027 2°54.439 23.9131 0.03274 0.166678 10.073481
2009-07-01 08:44:56 51°15.041 2°54.426 23.9153 0.033769 0.171934 10.073481
2009-07-01 08:45:01 51°15.054 2°54.412 23.9044 0.033769 0.171934 10.073481
2009-07-01 08:45:06 51°15.068 2°54.399 23.9101 0.033254 0.169302 10.073481
2009-07-01 08:45:11 51°15.082 2°54.386 23.8944 0.033357 0.169828 10.073481
2009-07-01 08:45:16 51°15.095 2°54.372 23.8948 0.03274 0.166665 10.073481
2009-07-01 08:45:22 51°15.111 2°54.357 23.8875 0.033152 0.168764 10.073481
2009-07-01 08:45:26 51°15.122 2°54.346 23.9005 0.033563 0.170864 10.073481
2009-07-01 08:45:31 51°15.135 2°54.333 23.9216 0.033563 0.170864 10.073481
2009-07-01 08:45:36 51°15.149 2°54.32 23.917 0.032946 0.167715 10.073481
2009-07-01 08:45:42 51°15.165 2°54.304 23.9057 0.03274 0.166668 10.073481
2009-07-01 08:45:46 51°15.176 2°54.293 23.9165 0.032637 0.166145 10.038657
2009-07-01 08:45:51 51°15.189 2°54.279 23.9039 0.033666 0.171413 10.073481
2009-07-01 08:45:56 51°15.202 2°54.266 23.9056 0.032946 0.167736 10.073481
2009-07-01 08:46:02 51°15.219 2°54.251 23.8951 0.032946 0.167736 10.073481
2009-07-01 08:46:06 51°15.229 2°54.24 23.917 0.033563 0.17089 10.073481
2009-07-01 08:46:11 51°15.243 2°54.228 23.9166 0.033049 0.168259 10.038657
2009-07-01 08:46:16 51°15.257 2°54.215 23.9101 0.032534 0.16563 10.073481
2009-07-01 08:46:22 51°15.273 2°54.2 23.9014 0.032431 0.165105 10.038657
2009-07-01 08:46:26 51°15.284 2°54.189 23.9032 0.032637 0.166153 10.038657
2009-07-01 08:46:31 51°15.298 2°54.177 23.9149 0.032637 0.166153 10.038657
2009-07-01 08:46:36 51°15.312 2°54.164 23.9247 0.032946 0.167739 10.038657
2009-07-01 08:46:41 51°15.326 2°54.151 23.9186 0.03274 0.166693 10.038657
2009-07-01 08:46:46 51°15.339 2°54.138 23.9032 0.03274 0.166696 10.038657
2009-07-01 08:46:51 51°15.353 2°54.126 23.9117 0.033872 0.172484 10.038657
2009-07-01 08:46:55 51°15.365 2°54.116 23.9193 0.033357 0.169862 10.038657
2009-07-01 08:47:01 51°15.381 2°54.101 23.8947 0.033357 0.169862 10.038657
2009-07-01 08:47:06 51°15.395 2°54.088 23.8796 0.032946 0.167754 10.038657
2009-07-01 08:47:11 51°15.409 2°54.076 23.8947 0.032123 0.163536 10.038657
2009-07-01 08:47:16 51°15.423 2°54.063 23.914 0.033049 0.168254 10.003833
2009-07-01 08:47:22 51°15.439 2°54.048 23.9248 0.032946 0.167736 10.003833
2009-07-01 08:47:26 51°15.45 2°54.038 23.912 0.033563 0.170903 10.003833
2009-07-01 08:47:31 51°15.464 2°54.026 23.9159 0.033563 0.170903 10.003833
2009-07-01 08:47:36 51°15.478 2°54.013 23.8798 0.033357 0.169854 10.003833
2009-07-01 08:47:41 51°15.492 2°54.001 23.9007 0.033666 0.171429 10.003833
2009-07-01 08:47:46 51°15.506 2°53.988 23.9151 0.033357 0.169862 10.003833
2009-07-01 08:47:51 51°15.519 2°53.976 23.9075 0.03346 0.170385 10.003833
2009-07-01 08:47:56 51°15.533 2°53.964 23.8977 0.03274 0.166701 10.003833
2009-07-01 08:48:01 51°15.547 2°53.951 23.8713 0.03274 0.166701 10.003833
2009-07-01 08:48:06 51°15.561 2°53.939 23.9168 0.033357 0.169849 9.969009
2009-07-01 08:48:11 51°15.575 2°53.927 23.9182 0.033769 0.171961 9.969009
2009-07-01 08:48:16 51°15.588 2°53.915 23.9127 0.03274 0.166704 9.969009
2009-07-01 08:48:22 51°15.605 2°53.9 23.8909 0.032843 0.167232 9.969009
2009-07-01 08:48:26 51°15.616 2°53.891 23.9055 0.033152 0.168811 9.969009
2009-07-01 08:48:30 51°15.627 2°53.881 23.91 0.033152 0.168811 9.969009
2009-07-01 08:48:36 51°15.644 2°53.867 23.9128 0.033254 0.169344 9.969009
2009-07-01 08:48:41 51°15.658 2°53.855 23.9198 0.033666 0.171453 9.969009
2009-07-01 08:48:46 51°15.672 2°53.843 23.8983 0.033563 0.170943 9.969009
2009-07-01 08:48:50 51°15.683 2°53.832 23.8916 0.033872 0.17253 9.969009
2009-07-01 08:48:56 51°15.699 2°53.818 23.9193 0.033975 0.173053 9.969009
2009-07-01 08:49:01 51°15.713 2°53.807 23.9254 0.033975 0.173053 9.969009
2009-07-01 08:49:06 51°15.728 2°53.796 23.9392 0.034284 0.174641 9.969009
2009-07-01 08:49:11 51°15.742 2°53.784 23.9173 0.034284 0.17466 9.934185
2009-07-01 08:49:16 51°15.756 2°53.773 23.9115 0.033357 0.169909 9.934185
2009-07-01 08:49:21 51°15.77 2°53.761 23.8898 0.032637 0.166204 9.934185
2009-07-01 08:49:26 51°15.784 2°53.749 23.8846 0.033049 0.168295 9.934185
2009-07-01 08:49:31 51°15.798 2°53.738 23.9132 0.033049 0.168295 9.934185
2009-07-01 08:49:36 51°15.813 2°53.726 23.912 0.03346 0.170401 9.934185
2009-07-01 08:49:42 51°15.83 2°53.712 23.9003 0.033769 0.17199 9.934185
2009-07-01 08:49:46 51°15.841 2°53.703 23.889 0.033769 0.171998 9.934185
2009-07-01 08:49:51 51°15.855 2°53.691 23.9191 0.033357 0.169878 9.934185
2009-07-01 08:49:56 51°15.87 2°53.68 23.9264 0.033769 0.171969 9.934185
2009-07-01 08:50:02 51°15.887 2°53.666 23.921 0.033769 0.171969 9.934185
2009-07-01 08:50:06 51°15.898 2°53.657 23.9057 0.033872 0.172506 9.899361
2009-07-01 08:50:11 51°15.912 2°53.645 23.9272 0.033666 0.171456 9.934185
2009-07-01 08:50:16 51°15.926 2°53.633 23.9153 0.032534 0.165661 9.934185
2009-07-01 08:50:22 51°15.943 2°53.619 23.8962 0.033049 0.168282 9.934185
2009-07-01 08:50:26 51°15.954 2°53.61 23.9136 0.033254 0.169323 9.899361
2009-07-01 08:50:31 51°15.968 2°53.598 23.9353 0.033254 0.169323 9.899361
2009-07-01 08:50:36 51°15.983 2°53.586 23.9293 0.034078 0.173545 9.899361
2009-07-01 08:50:41 51°15.997 2°53.575 23.9223 0.03346 0.170401 9.899361
2009-07-01 08:50:46 51°16.011 2°53.563 23.9082 0.033357 0.16988 9.899361
2009-07-01 08:50:50 51°16.022 2°53.554 23.9075 0.032637 0.166194 9.899361
2009-07-01 08:50:56 51°16.039 2°53.539 23.8996 0.03274 0.166719 9.899361
2009-07-01 08:51:01 51°16.053 2°53.527 23.9239 0.03274 0.166719 9.899361
2009-07-01 08:51:06 51°16.067 2°53.516 23.9197 0.033357 0.169904 9.899361
2009-07-01 08:51:11 51°16.08 2°53.504 23.9073 0.033254 0.169391 9.899361
2009-07-01 08:51:16 51°16.094 2°53.491 23.9139 0.033357 0.169909 9.864537
2009-07-01 08:51:21 51°16.108 2°53.479 23.9197 0.033666 0.171472 9.899361
2009-07-01 08:51:26 51°16.122 2°53.467 23.9086 0.033152 0.168834 9.864537
2009-07-01 08:51:31 51°16.136 2°53.455 23.9037 0.033152 0.168834 9.864537
2009-07-01 08:51:36 51°16.149 2°53.443 23.9076 0.03274 0.166717 9.864537
2009-07-01 08:51:41 51°16.163 2°53.43 23.9296 0.033357 0.169862 9.864537
2009-07-01 08:51:46 51°16.177 2°53.419 23.9151 0.032843 0.167242 9.864537
2009-07-01 08:51:52 51°16.194 2°53.405 23.9232 0.033975 0.173043 9.864537
2009-07-01 08:51:56 51°16.205 2°53.395 23.9284 0.03346 0.170428 9.864537
2009-07-01 08:52:01 51°16.219 2°53.382 23.9258 0.03346 0.170428 9.864537
2009-07-01 08:52:06 51°16.232 2°53.37 23.9345 0.033563 0.170954 9.864537
2009-07-01 08:52:11 51°16.246 2°53.357 23.8972 0.033152 0.168839 9.864537
2009-07-01 08:52:17 51°16.262 2°53.341 23.9136 0.034078 0.17358 9.864537
2009-07-01 08:52:21 51°16.273 2°53.332 23.9263 0.033872 0.172516 9.864537
2009-07-01 08:52:26 51°16.287 2°53.319 23.9301 0.03346 0.170414 9.864537
2009-07-01 08:52:31 51°16.3 2°53.307 23.9128 0.03346 0.170414 9.864537
2009-07-01 08:52:37 51°16.317 2°53.293 23.9026 0.03346 0.170406 9.829713
2009-07-01 08:52:42 51°16.331 2°53.281 23.9239 0.033872 0.172506 9.829713
2009-07-01 08:52:46 51°16.342 2°53.272 23.9066 0.034386 0.175152 9.829713
2009-07-01 08:52:51 51°16.356 2°53.259 23.9174 0.033357 0.169896 9.829713
2009-07-01 08:52:56 51°16.37 2°53.248 23.9208 0.034078 0.173577 9.829713
2009-07-01 08:53:02 51°16.387 2°53.234 23.9236 0.034078 0.173577 9.829713
2009-07-01 08:53:06 51°16.399 2°53.224 23.9359 0.034181 0.174115 9.829713
2009-07-01 08:53:10 51°16.41 2°53.215 23.9269 0.034078 0.173588 9.829713
2009-07-01 08:53:16 51°16.427 2°53.201 23.9251 0.033152 0.168847 9.794888
2009-07-01 08:53:22 51°16.444 2°53.187 23.921 0.033666 0.171469 9.794888
2009-07-01 08:53:26 51°16.455 2°53.178 23.9103 0.03346 0.170414 9.829713
2009-07-01 08:53:30 51°16.466 2°53.168 23.9302 0.03346 0.170414 9.829713
2009-07-01 08:53:36 51°16.483 2°53.154 23.9082 0.033254 0.16937 9.794888
2009-07-01 08:53:41 51°16.497 2°53.142 23.9259 0.033254 0.169381 9.794888
2009-07-01 08:53:46 51°16.511 2°53.131 23.9254 0.033769 0.172043 9.794888
2009-07-01 08:53:50 51°16.522 2°53.122 23.9384 0.03346 0.170465 9.794888
2009-07-01 08:53:56 51°16.539 2°53.107 23.9026 0.032843 0.167301 9.794888
2009-07-01 08:54:01 51°16.553 2°53.096 23.9013 0.032843 0.167301 9.794888
2009-07-01 08:54:06 51°16.567 2°53.084 23.9103 0.032534 0.165712 9.794888
2009-07-01 08:54:11 51°16.581 2°53.072 23.9332 0.033357 0.169915 9.794888
2009-07-01 08:54:16 51°16.596 2°53.06 23.923 0.033357 0.169923 9.794888
2009-07-01 08:54:21 51°16.61 2°53.048 23.9338 0.032843 0.167291 9.794888
2009-07-01 08:54:26 51°16.623 2°53.036 23.9302 0.033049 0.168337 9.794888
2009-07-01 08:54:31 51°16.637 2°53.024 23.9362 0.033049 0.168337 9.794888
2009-07-01 08:54:36 51°16.651 2°53.011 23.9005 0.033769 0.172027 9.794888
2009-07-01 08:54:41 51°16.665 2°52.999 23.9176 0.033769 0.172027 9.794888
2009-07-01 08:54:46 51°16.679 2°52.987 23.922 0.033872 0.172559 9.760064
2009-07-01 08:54:51 51°16.693 2°52.975 23.9216 0.034284 0.174677 9.760064
2009-07-01 08:54:56 51°16.707 2°52.963 23.9299 0.033872 0.172567 9.760064
2009-07-01 08:55:02 51°16.723 2°52.948 23.9342 0.033872 0.172567 9.760064
2009-07-01 08:55:06 51°16.735 2°52.939 23.9256 0.033563 0.170985 9.760064
2009-07-01 08:55:11 51°16.749 2°52.927 23.923 0.033357 0.169925 9.760064
2009-07-01 08:55:15 51°16.76 2°52.918 23.9177 0.03346 0.170454 9.760064
2009-07-01 08:55:22 51°16.779 2°52.902 23.9332 0.033666 0.171514 9.760064
2009-07-01 08:55:26 51°16.791 2°52.892 23.9202 0.03346 0.170467 9.760064
2009-07-01 08:55:31 51°16.805 2°52.88 23.9279 0.03346 0.170467 9.760064
2009-07-01 08:55:36 51°16.819 2°52.868 23.9232 0.033357 0.169933 9.72524
2009-07-01 08:55:41 51°16.833 2°52.856 23.9255 0.033769 0.172041 9.72524
2009-07-01 08:55:46 51°16.847 2°52.844 23.9306 0.03346 0.170465 9.72524
2009-07-01 08:55:51 51°16.86 2°52.833 23.9336 0.03346 0.170472 9.72524
2009-07-01 08:55:56 51°16.875 2°52.821 23.9273 0.03346 0.170472 9.72524
2009-07-01 08:56:01 51°16.889 2°52.809 23.9273 0.03346 0.170472 9.72524
2009-07-01 08:56:06 51°16.903 2°52.797 23.9324 0.033357 0.169959 9.72524
2009-07-01 08:56:10 51°16.914 2°52.787 23.9189 0.033254 0.169439 9.72524
2009-07-01 08:56:16 51°16.931 2°52.773 23.9205 0.032946 0.167856 9.72524
2009-07-01 08:56:22 51°16.947 2°52.758 23.9275 0.03274 0.166791 9.72524
2009-07-01 08:56:26 51°16.959 2°52.748 23.931 0.033769 0.172065 9.72524
2009-07-01 08:56:30 51°16.97 2°52.739 23.9197 0.033769 0.172065 9.72524
2009-07-01 08:56:36 51°16.987 2°52.724 23.9329 0.033666 0.171557 9.72524
2009-07-01 08:56:41 51°17.001 2°52.712 23.9448 0.033357 0.169973 9.690416
2009-07-01 08:56:46 51°17.015 2°52.7 23.9323 0.033152 0.16891 9.690416
2009-07-01 08:56:51 51°17.029 2°52.688 23.9266 0.032843 0.16732 9.690416
2009-07-01 08:56:56 51°17.043 2°52.676 23.9319 0.033254 0.169423 9.690416
2009-07-01 08:57:01 51°17.057 2°52.664 23.937 0.033254 0.169423 9.690416
2009-07-01 08:57:06 51°17.071 2°52.653 23.9331 0.033049 0.168379 9.690416
2009-07-01 08:57:11 51°17.085 2°52.641 23.945 0.033872 0.172602 9.690416
2009-07-01 08:57:17 51°17.102 2°52.627 23.9581 0.034181 0.174204 9.690416
2009-07-01 08:57:22 51°17.116 2°52.615 23.9359 0.033666 0.171565 9.690416
2009-07-01 08:57:26 51°17.128 2°52.605 23.9387 0.03346 0.170507 9.690416
2009-07-01 08:57:31 51°17.142 2°52.593 23.9281 0.03346 0.170507 9.690416
2009-07-01 08:57:36 51°17.156 2°52.58 23.9372 0.033254 0.169449 9.690416
2009-07-01 08:57:42 51°17.172 2°52.565 23.9391 0.033563 0.171033 9.690416
2009-07-01 08:57:46 51°17.183 2°52.555 23.9317 0.033769 0.172099 9.690416
2009-07-01 08:57:51 51°17.197 2°52.542 23.9306 0.033152 0.168936 9.690416
2009-07-01 08:57:56 51°17.211 2°52.53 23.9479 0.033666 0.17157 9.690416
2009-07-01 08:58:01 51°17.225 2°52.517 23.9434 0.033666 0.17157 9.690416
2009-07-01 08:58:06 51°17.238 2°52.504 23.9436 0.033152 0.16896 9.690416
2009-07-01 08:58:11 51°17.252 2°52.491 23.9256 0.033254 0.169481 9.655592
2009-07-01 08:58:16 51°17.266 2°52.479 23.957 0.033254 0.169478 9.655592
2009-07-01 08:58:21 51°17.28 2°52.466 23.9352 0.033152 0.168957 9.655592
2009-07-01 08:58:26 51°17.294 2°52.454 23.9515 0.033975 0.17318 9.655592
2009-07-01 08:58:31 51°17.308 2°52.441 23.9554 0.033975 0.17318 9.655592
2009-07-01 08:58:36 51°17.322 2°52.429 23.9469 0.033769 0.172129 9.655592
2009-07-01 08:58:42 51°17.339 2°52.414 23.9357 0.033563 0.171078 9.655592
2009-07-01 08:58:46 51°17.35 2°52.404 23.9409 0.032843 0.167371 9.655592
2009-07-01 08:58:51 51°17.364 2°52.392 23.9548 0.033357 0.169991 9.655592
2009-07-01 08:58:56 51°17.379 2°52.38 23.939 0.032946 0.167887 9.620768
2009-07-01 08:59:02 51°17.396 2°52.366 23.9278 0.032946 0.167887 9.620768
2009-07-01 08:59:06 51°17.407 2°52.356 23.9453 0.03346 0.170517 9.620768
2009-07-01 08:59:11 51°17.422 2°52.345 23.9153 0.033049 0.168418 9.620768
2009-07-01 08:59:17 51°17.439 2°52.331 23.8665 0.031917 0.162617 9.620768
2009-07-01 08:59:22 51°17.454 2°52.32 23.9113 0.035107 0.17895 9.620768
2009-07-01 08:59:26 51°17.466 2°52.313 23.8971 0.033049 0.168486 9.655592
2009-07-01 08:59:31 51°17.481 2°52.307 23.9003 0.033049 0.168486 9.655592
2009-07-01 08:59:36 51°17.496 2°52.298 23.8379 0.035518 0.181194 9.72524
2009-07-01 08:59:42 51°17.515 2°52.292 23.8446 0.032946 0.167973 9.760064
2009-07-01 08:59:46 51°17.528 2°52.286 23.8258 0.033872 0.172669 9.794888
2009-07-01 08:59:51 51°17.544 2°52.281 23.8367 0.032123 0.163665 9.829713
2009-07-01 08:59:56 51°17.559 2°52.275 23.8104 0.031814 0.16207 9.864537
2009-07-01 09:00:02 51°17.578 2°52.271 23.8288 0.031814 0.16207 9.864537
2009-07-01 09:00:06 51°17.591 2°52.269 23.7798 0.034695 0.176837 9.899361
2009-07-01 09:00:11 51°17.607 2°52.268 23.7929 0.032534 0.165812 9.969009
2009-07-01 09:00:16 51°17.623 2°52.266 23.7733 0.034181 0.174247 10.003833
2009-07-01 09:00:22 51°17.643 2°52.267 23.7984 0.033357 0.170033 10.038657
2009-07-01 09:00:26 51°17.655 2°52.267 23.8059 0.033563 0.171089 10.038657
2009-07-01 09:00:31 51°17.672 2°52.269 23.8189 0.033563 0.171089 10.038657
2009-07-01 09:00:36 51°17.688 2°52.27 23.8193 0.033563 0.171089 10.073481
2009-07-01 09:00:42 51°17.707 2°52.274 23.8305 0.033254 0.169515 10.108305
2009-07-01 09:00:46 51°17.72 2°52.276 23.8214 0.033769 0.172164 10.073481
2009-07-01 09:00:51 51°17.737 2°52.278 23.83 0.032843 0.167428 10.073481
2009-07-01 09:00:56 51°17.753 2°52.281 23.8293 0.033872 0.172725 10.108305
2009-07-01 09:01:01 51°17.769 2°52.284 23.8407 0.033872 0.172725 10.108305
2009-07-01 09:01:06 51°17.786 2°52.288 23.8315 0.033666 0.171664 10.073481
2009-07-01 09:01:11 51°17.802 2°52.291 23.8497 0.033563 0.171153 10.073481
2009-07-01 09:01:17 51°17.821 2°52.296 23.8346 0.03346 0.170621 10.073481
2009-07-01 09:01:22 51°17.838 2°52.299 23.8463 0.033769 0.172201 10.073481
2009-07-01 09:01:26 51°17.85 2°52.302 23.8491 0.033769 0.172198 10.038657
2009-07-01 09:01:31 51°17.867 2°52.305 23.849 0.033769 0.172198 10.038657
2009-07-01 09:01:37 51°17.886 2°52.31 23.8565 0.034078 0.173793 10.038657
2009-07-01 09:01:42 51°17.903 2°52.314 23.8482 0.033049 0.168535 10.038657
2009-07-01 09:01:46 51°17.916 2°52.316 23.8419 0.033769 0.172185 10.003833
2009-07-01 09:01:50 51°17.929 2°52.319 23.8542 0.033872 0.17268 9.969009
2009-07-01 09:01:56 51°17.949 2°52.323 23.8569 0.033975 0.173201 9.969009
2009-07-01 09:02:02 51°17.968 2°52.328 23.8594 0.033975 0.173201 9.969009
2009-07-01 09:02:06 51°17.981 2°52.331 23.8575 0.033666 0.171621 9.934185
2009-07-01 09:02:10 51°17.994 2°52.334 23.8585 0.033357 0.170041 9.899361
2009-07-01 09:02:16 51°18.014 2°52.338 23.8542 0.033254 0.169517 9.899361
2009-07-01 09:02:21 51°18.03 2°52.342 23.8482 0.033357 0.170057 9.864537
2009-07-01 09:02:26 51°18.047 2°52.346 23.8516 0.033152 0.169009 9.864537
2009-07-01 09:02:30 51°18.06 2°52.349 23.8601 0.033152 0.169009 9.864537
2009-07-01 09:02:36 51°18.079 2°52.353 23.8521 0.032843 0.167441 9.829713
2009-07-01 09:02:41 51°18.095 2°52.357 23.8604 0.033666 0.171674 9.829713
2009-07-01 09:02:46 51°18.111 2°52.361 23.8591 0.033769 0.172236 9.794888
2009-07-01 09:02:51 51°18.128 2°52.365 23.8656 0.033563 0.171187 9.794888
2009-07-01 09:02:56 51°18.144 2°52.37 23.8683 0.033357 0.170134 9.760064
2009-07-01 09:03:01 51°18.16 2°52.374 23.8707 0.033357 0.170134 9.760064
2009-07-01 09:03:06 51°18.177 2°52.378 23.8608 0.033769 0.172241 9.760064
2009-07-01 09:03:12 51°18.196 2°52.383 23.864 0.032431 0.165389 9.72524
2009-07-01 09:03:16 51°18.209 2°52.385 23.8554 0.032843 0.167488 9.72524
2009-07-01 09:03:21 51°18.225 2°52.389 23.8764 0.03346 0.170647 9.72524
2009-07-01 09:03:26 51°18.242 2°52.393 23.8587 0.033254 0.169602 9.690416
2009-07-01 09:03:31 51°18.258 2°52.397 23.8651 0.033254 0.169602 9.690416
2009-07-01 09:03:36 51°18.274 2°52.402 23.8746 0.033357 0.17011 9.690416
2009-07-01 09:03:42 51°18.293 2°52.407 23.877 0.033666 0.171696 9.690416
2009-07-01 09:03:46 51°18.306 2°52.41 23.8732 0.032843 0.167485 9.690416
2009-07-01 09:03:50 51°18.319 2°52.414 23.8717 0.033563 0.171177 9.655592
2009-07-01 09:03:56 51°18.339 2°52.418 23.873 0.033872 0.17275 9.655592
2009-07-01 09:04:02 51°18.357 2°52.423 23.8669 0.033872 0.17275 9.655592
2009-07-01 09:04:06 51°18.37 2°52.426 23.8659 0.033357 0.170115 9.655592
2009-07-01 09:04:11 51°18.386 2°52.43 23.8665 0.033152 0.169057 9.655592
2009-07-01 09:04:16 51°18.402 2°52.434 23.8734 0.033666 0.171696 9.655592
2009-07-01 09:04:22 51°18.422 2°52.439 23.8762 0.03346 0.170634 9.620768
2009-07-01 09:04:26 51°18.434 2°52.443 23.8731 0.033254 0.169594 9.655592
2009-07-01 09:04:31 51°18.45 2°52.447 23.8753 0.033254 0.169594 9.655592
2009-07-01 09:04:36 51°18.466 2°52.451 23.8825 0.033563 0.171177 9.655592
2009-07-01 09:04:42 51°18.485 2°52.457 23.8828 0.03274 0.166964 9.620768
2009-07-01 09:04:46 51°18.498 2°52.46 23.8778 0.033049 0.168541 9.620768
2009-07-01 09:04:50 51°18.511 2°52.464 23.8879 0.033666 0.171709 9.620768
2009-07-01 09:04:56 51°18.53 2°52.469 23.8799 0.033049 0.168562 9.620768
2009-07-01 09:05:01 51°18.546 2°52.473 23.8816 0.033049 0.168562 9.620768
2009-07-01 09:05:06 51°18.562 2°52.476 23.8798 0.033049 0.168556 9.620768
2009-07-01 09:05:10 51°18.575 2°52.479 23.8877 0.03346 0.170687 9.620768
2009-07-01 09:05:16 51°18.594 2°52.484 23.8708 0.033769 0.172284 9.620768
2009-07-01 09:05:21 51°18.61 2°52.488 23.8753 0.03346 0.170703 9.585944
2009-07-01 09:05:26 51°18.626 2°52.492 23.891 0.033563 0.171232 9.620768
2009-07-01 09:05:31 51°18.642 2°52.496 23.8912 0.033563 0.171232 9.620768
2009-07-01 09:05:37 51°18.661 2°52.501 23.8877 0.033357 0.170208 9.585944
2009-07-01 09:05:42 51°18.677 2°52.505 23.8868 0.033872 0.17283 9.620768
2009-07-01 09:05:46 51°18.69 2°52.508 23.8957 0.03274 0.167016 9.620768
2009-07-01 09:05:51 51°18.706 2°52.513 23.894 0.033975 0.173347 9.585944
2009-07-01 09:05:56 51°18.722 2°52.518 23.8926 0.03346 0.170708 9.585944
2009-07-01 09:06:02 51°18.742 2°52.522 23.8967 0.03346 0.170708 9.585944
2009-07-01 09:06:06 51°18.755 2°52.526 23.8919 0.033769 0.172289 9.585944
2009-07-01 09:06:10 51°18.768 2°52.529 23.8911 0.033049 0.16859 9.585944
2009-07-01 09:06:16 51°18.787 2°52.534 23.8818 0.032843 0.167522 9.585944
2009-07-01 09:06:22 51°18.806 2°52.539 23.8929 0.032946 0.168046 9.585944
2009-07-01 09:06:26 51°18.819 2°52.542 23.8954 0.033152 0.169104 9.585944
2009-07-01 09:06:30 51°18.832 2°52.545 23.8879 0.033152 0.169104 9.585944
2009-07-01 09:06:36 51°18.852 2°52.55 23.8975 0.033049 0.16858 9.585944
2009-07-01 09:06:42 51°18.872 2°52.555 23.9016 0.032843 0.16753 9.585944
2009-07-01 09:06:46 51°18.886 2°52.559 23.9041 0.033357 0.170181 9.585944
2009-07-01 09:06:50 51°18.899 2°52.562 23.8999 0.03274 0.167019 9.55112
2009-07-01 09:06:56 51°18.919 2°52.566 23.892 0.032946 0.168074 9.585944
2009-07-01 09:07:02 51°18.939 2°52.571 23.903 0.032946 0.168074 9.585944
2009-07-01 09:07:06 51°18.952 2°52.574 23.8936 0.03274 0.167029 9.585944
2009-07-01 09:07:11 51°18.969 2°52.578 23.9041 0.032431 0.165453 9.585944
2009-07-01 09:07:16 51°18.986 2°52.581 23.9048 0.03274 0.167034 9.55112
2009-07-01 09:07:22 51°19.006 2°52.586 23.9002 0.03346 0.170732 9.585944
2009-07-01 09:07:26 51°19.019 2°52.59 23.9089 0.033049 0.168632 9.585944
2009-07-01 09:07:31 51°19.036 2°52.594 23.9066 0.033049 0.168632 9.585944
2009-07-01 09:07:36 51°19.053 2°52.598 23.9065 0.033152 0.169156 9.55112
2009-07-01 09:07:42 51°19.073 2°52.603 23.9071 0.033254 0.16971 9.585944
2009-07-01 09:07:46 51°19.086 2°52.607 23.9116 0.03274 0.167078 9.55112
2009-07-01 09:07:51 51°19.103 2°52.611 23.9137 0.032946 0.168119 9.55112
2009-07-01 09:07:56 51°19.12 2°52.615 23.9172 0.033357 0.170213 9.55112
2009-07-01 09:08:01 51°19.137 2°52.619 23.9198 0.033357 0.170213 9.55112
2009-07-01 09:08:06 51°19.154 2°52.623 23.9057 0.033049 0.168637 9.55112
2009-07-01 09:08:11 51°19.171 2°52.628 23.8999 0.032431 0.165466 9.55112
2009-07-01 09:08:17 51°19.191 2°52.633 23.9037 0.032534 0.165987 9.55112
2009-07-01 09:08:22 51°19.208 2°52.637 23.911 0.033152 0.169149 9.55112
2009-07-01 09:08:26 51°19.221 2°52.641 23.9192 0.032843 0.167579 9.55112
2009-07-01 09:08:31 51°19.238 2°52.647 23.9185 0.032843 0.167579 9.55112
2009-07-01 09:08:36 51°19.255 2°52.652 23.9149 0.033769 0.172332 9.55112
2009-07-01 09:08:42 51°19.275 2°52.657 23.9082 0.032843 0.167587 9.55112
2009-07-01 09:08:46 51°19.289 2°52.661 23.9082 0.033152 0.169177 9.55112
2009-07-01 09:08:50 51°19.302 2°52.665 23.9261 0.033357 0.170221 9.55112
2009-07-01 09:08:56 51°19.322 2°52.671 23.921 0.03274 0.167065 9.55112
2009-07-01 09:09:02 51°19.343 2°52.677 23.9243 0.03274 0.167065 9.55112
2009-07-01 09:09:06 51°19.356 2°52.68 23.9153 0.032946 0.168119 9.55112
2009-07-01 09:09:10 51°19.37 2°52.683 23.9169 0.033254 0.169715 9.55112
2009-07-01 09:09:16 51°19.39 2°52.688 23.9202 0.032946 0.168137 9.55112
2009-07-01 09:09:21 51°19.407 2°52.692 23.9203 0.033049 0.168666 9.55112
2009-07-01 09:09:26 51°19.424 2°52.697 23.9288 0.033254 0.169718 9.55112
2009-07-01 09:09:31 51°19.44 2°52.702 23.9318 0.033254 0.169718 9.55112
2009-07-01 09:09:36 51°19.457 2°52.707 23.9242 0.033254 0.169733 9.55112
2009-07-01 09:09:41 51°19.474 2°52.711 23.9223 0.033049 0.168674 9.55112
2009-07-01 09:09:46 51°19.491 2°52.716 23.9357 0.032843 0.16762 9.55112
2009-07-01 09:09:51 51°19.508 2°52.72 23.9123 0.033152 0.169196 9.55112
2009-07-01 09:09:56 51°19.525 2°52.724 23.9182 0.032431 0.165512 9.55112
2009-07-01 09:10:01 51°19.542 2°52.728 23.9203 0.032431 0.165512 9.55112
2009-07-01 09:10:06 51°19.559 2°52.731 23.9204 0.033152 0.169191 9.55112
2009-07-01 09:10:11 51°19.576 2°52.736 23.9301 0.032637 0.166549 9.55112
2009-07-01 09:10:16 51°19.593 2°52.74 23.9265 0.032843 0.167602 9.55112
2009-07-01 09:10:21 51°19.61 2°52.745 23.9434 0.033152 0.169188 9.55112
2009-07-01 09:10:26 51°19.627 2°52.749 23.9292 0.033152 0.169204 9.55112
2009-07-01 09:10:31 51°19.644 2°52.753 23.9289 0.033152 0.169204 9.55112
2009-07-01 09:10:35 51°19.658 2°52.757 23.9239 0.033666 0.171842 9.55112
2009-07-01 09:10:41 51°19.678 2°52.762 23.9315 0.03346 0.170798 9.55112
2009-07-01 09:10:46 51°19.695 2°52.766 23.9405 0.033049 0.168685 9.55112
2009-07-01 09:10:51 51°19.712 2°52.771 23.9337 0.033049 0.168685 9.55112
2009-07-01 09:10:56 51°19.729 2°52.776 23.935 0.032637 0.166572 9.55112
2009-07-01 09:11:01 51°19.746 2°52.781 23.9305 0.032637 0.166572 9.55112
2009-07-01 09:11:06 51°19.763 2°52.785 23.939 0.033049 0.168677 9.55112
2009-07-01 09:11:11 51°19.78 2°52.791 23.9445 0.032843 0.167628 9.55112
2009-07-01 09:11:16 51°19.797 2°52.795 23.9303 0.032534 0.166041 9.55112
2009-07-01 09:11:22 51°19.817 2°52.801 23.9379 0.032946 0.168152 9.55112
2009-07-01 09:11:26 51°19.831 2°52.805 23.9481 0.033666 0.171853 9.55112
2009-07-01 09:11:31 51°19.848 2°52.81 23.9338 0.033666 0.171853 9.55112
2009-07-01 09:11:36 51°19.865 2°52.814 23.9324 0.033049 0.168703 9.55112
2009-07-01 09:11:41 51°19.882 2°52.819 23.9363 0.033563 0.171355 9.55112
2009-07-01 09:11:46 51°19.899 2°52.824 23.9337 0.033049 0.168729 9.516296
2009-07-01 09:11:50 51°19.913 2°52.828 23.9408 0.033049 0.168729 9.516296
2009-07-01 09:11:56 51°19.933 2°52.833 23.9373 0.032946 0.168197 9.55112
2009-07-01 09:12:01 51°19.95 2°52.838 23.9444 0.032946 0.168197 9.55112
2009-07-01 09:12:06 51°19.968 2°52.843 23.9401 0.03346 0.170846 9.516296
2009-07-01 09:12:10 51°19.981 2°52.847 23.9368 0.032431 0.165571 9.55112
2009-07-01 09:12:16 51°20.002 2°52.853 23.9503 0.03346 0.170838 9.55112
2009-07-01 09:12:21 51°20.019 2°52.858 23.9475 0.032225 0.16451 9.55112
2009-07-01 09:12:26 51°20.036 2°52.862 23.9462 0.03346 0.17083 9.516296
2009-07-01 09:12:30 51°20.049 2°52.866 23.9612 0.03346 0.17083 9.516296
2009-07-01 09:12:36 51°20.07 2°52.872 23.9423 0.032843 0.16766 9.516296
2009-07-01 09:12:41 51°20.087 2°52.877 23.9518 0.032328 0.165024 9.516296
2009-07-01 09:12:46 51°20.104 2°52.882 23.9428 0.033049 0.168708 9.55112
2009-07-01 09:12:51 51°20.121 2°52.886 23.954 0.032225 0.1645 9.516296
2009-07-01 09:12:56 51°20.138 2°52.891 23.9489 0.032534 0.166074 9.516296
2009-07-01 09:13:01 51°20.155 2°52.895 23.9459 0.032534 0.166074 9.516296
2009-07-01 09:13:06 51°20.172 2°52.9 23.9489 0.032225 0.164505 9.516296
2009-07-01 09:13:11 51°20.188 2°52.904 23.9481 0.03274 0.167135 9.55112
2009-07-01 09:13:15 51°20.202 2°52.908 23.964 0.032637 0.166619 9.516296
2009-07-01 09:13:21 51°20.222 2°52.915 23.9578 0.033357 0.170332 9.516296
2009-07-01 09:13:26 51°20.239 2°52.919 23.9608 0.032637 0.166637 9.516296
2009-07-01 09:13:31 51°20.256 2°52.924 23.9626 0.032637 0.166637 9.516296
2009-07-01 09:13:36 51°20.272 2°52.929 23.959 0.033152 0.169267 9.516296
2009-07-01 09:13:42 51°20.292 2°52.935 23.9589 0.032534 0.166097 9.516296
2009-07-01 09:13:46 51°20.306 2°52.938 23.9565 0.033049 0.168737 9.516296
2009-07-01 09:13:51 51°20.323 2°52.944 23.9587 0.03274 0.167143 9.516296
2009-07-01 09:13:56 51°20.339 2°52.948 23.9588 0.03274 0.167135 9.516296
2009-07-01 09:14:01 51°20.356 2°52.953 23.9428 0.03274 0.167135 9.516296
2009-07-01 09:14:06 51°20.373 2°52.959 23.9608 0.032225 0.164497 9.516296
2009-07-01 09:14:11 51°20.389 2°52.964 23.9584 0.033152 0.169243 9.516296
2009-07-01 09:14:16 51°20.406 2°52.969 23.9622 0.03274 0.167148 9.516296
2009-07-01 09:14:21 51°20.423 2°52.975 23.9667 0.033049 0.168734 9.516296
2009-07-01 09:14:26 51°20.439 2°52.98 23.9782 0.033254 0.169791 9.516296
2009-07-01 09:14:30 51°20.453 2°52.985 23.9687 0.033254 0.169791 9.516296
2009-07-01 09:14:36 51°20.473 2°52.992 23.9666 0.032534 0.166108 9.516296
2009-07-01 09:14:41 51°20.489 2°52.997 23.9633 0.032637 0.166637 9.516296
2009-07-01 09:14:46 51°20.506 2°53.003 23.969 0.032946 0.16822 9.516296
2009-07-01 09:14:50 51°20.519 2°53.007 23.9695 0.032843 0.167699 9.516296
2009-07-01 09:14:56 51°20.539 2°53.014 23.9731 0.032431 0.165591 9.516296
2009-07-01 09:15:02 51°20.559 2°53.021 23.9603 0.032431 0.165591 9.516296
2009-07-01 09:15:06 51°20.573 2°53.025 23.9622 0.03274 0.167172 9.516296
2009-07-01 09:15:10 51°20.586 2°53.029 23.9652 0.032946 0.168226 9.516296
2009-07-01 09:15:16 51°20.606 2°53.037 23.9695 0.032946 0.168226 9.516296
2009-07-01 09:15:21 51°20.622 2°53.043 23.9728 0.03274 0.167177 9.516296
2009-07-01 09:15:26 51°20.639 2°53.049 23.9613 0.032534 0.166126 9.516296
2009-07-01 09:15:31 51°20.655 2°53.055 23.9722 0.032534 0.166126 9.516296
2009-07-01 09:15:36 51°20.672 2°53.06 23.9881 0.032843 0.167714 9.516296
2009-07-01 09:15:42 51°20.692 2°53.067 23.9862 0.032637 0.166671 9.516296
2009-07-01 09:15:46 51°20.705 2°53.072 23.9754 0.032637 0.166668 9.481472
2009-07-01 09:15:51 51°20.721 2°53.078 23.984 0.032534 0.166139 9.481472
2009-07-01 09:15:56 51°20.738 2°53.083 23.9833 0.031917 0.162979 9.481472
2009-07-01 09:16:02 51°20.758 2°53.089 23.9765 0.031917 0.162979 9.481472
2009-07-01 09:16:06 51°20.771 2°53.093 23.9712 0.032534 0.166139 9.481472
2009-07-01 09:16:10 51°20.784 2°53.097 23.9826 0.032123 0.164027 9.516296
2009-07-01 09:16:16 51°20.804 2°53.103 23.9714 0.032637 0.166658 9.481472
2009-07-01 09:16:21 51°20.821 2°53.108 23.9778 0.032843 0.167712 9.481472
2009-07-01 09:16:26 51°20.837 2°53.114 23.9826 0.033049 0.168774 9.481472
2009-07-01 09:16:30 51°20.85 2°53.118 23.9821 0.033049 0.168774 9.481472
2009-07-01 09:16:36 51°20.87 2°53.125 23.9829 0.032843 0.167722 9.481472
2009-07-01 09:16:41 51°20.887 2°53.131 23.9859 0.032431 0.165609 9.481472
2009-07-01 09:16:46 51°20.903 2°53.136 23.9868 0.03274 0.1672 9.481472
2009-07-01 09:16:51 51°20.92 2°53.142 23.9879 0.032946 0.16827 9.481472
2009-07-01 09:16:56 51°20.936 2°53.148 23.993 0.032534 0.166159 9.481472
2009-07-01 09:17:01 51°20.953 2°53.154 23.9796 0.032534 0.166159 9.481472
2009-07-01 09:17:06 51°20.969 2°53.16 23.9895 0.032534 0.166146 9.481472
2009-07-01 09:17:11 51°20.986 2°53.166 23.9906 0.032328 0.165083 9.481472
2009-07-01 09:17:16 51°21.002 2°53.171 23.9849 0.032328 0.16508 9.481472
2009-07-01 09:17:21 51°21.019 2°53.176 23.9821 0.032946 0.168246 9.481472
2009-07-01 09:17:26 51°21.035 2°53.182 23.9977 0.03274 0.167198 9.481472
2009-07-01 09:17:30 51°21.049 2°53.186 23.9961 0.03274 0.167198 9.481472
2009-07-01 09:17:36 51°21.069 2°53.193 23.9868 0.032946 0.168265 9.481472
2009-07-01 09:17:42 51°21.089 2°53.199 23.9975 0.032637 0.166681 9.481472
2009-07-01 09:17:46 51°21.102 2°53.204 23.988 0.032946 0.168254 9.481472
2009-07-01 09:17:50 51°21.115 2°53.208 23.9998 0.032328 0.165088 9.481472
2009-07-01 09:17:56 51°21.135 2°53.215 23.9919 0.032843 0.167725 9.481472
2009-07-01 09:18:02 51°21.155 2°53.222 24.0029 0.032843 0.167725 9.481472
2009-07-01 09:18:06 51°21.168 2°53.226 23.9986 0.032843 0.16773 9.481472
2009-07-01 09:18:11 51°21.185 2°53.232 23.9993 0.032123 0.164042 9.481472
2009-07-01 09:18:16 51°21.201 2°53.237 23.9927 0.03274 0.167229 9.446648
2009-07-01 09:18:21 51°21.218 2°53.243 24.0018 0.032534 0.166172 9.481472
2009-07-01 09:18:26 51°21.235 2°53.248 24.0005 0.03274 0.167231 9.446648
2009-07-01 09:18:31 51°21.251 2°53.254 24.0086 0.03274 0.167231 9.446648
2009-07-01 09:18:36 51°21.268 2°53.259 24.0104 0.032637 0.166707 9.481472
2009-07-01 09:18:41 51°21.284 2°53.264 24.0102 0.03202 0.163546 9.446648
2009-07-01 09:18:46 51°21.301 2°53.269 23.9894 0.032637 0.166709 9.446648
2009-07-01 09:18:51 51°21.318 2°53.273 23.9998 0.032946 0.168291 9.446648
2009-07-01 09:18:55 51°21.331 2°53.277 24.0092 0.032431 0.165658 9.446648
2009-07-01 09:19:01 51°21.351 2°53.283 23.9973 0.032431 0.165658 9.446648
2009-07-01 09:19:06 51°21.368 2°53.288 24.0022 0.032431 0.165653 9.446648
2009-07-01 09:19:11 51°21.384 2°53.294 24.0176 0.032637 0.166712 9.446648
2009-07-01 09:19:16 51°21.401 2°53.299 24 0.032225 0.164617 9.446648
2009-07-01 09:19:21 51°21.417 2°53.304 24.0042 0.032123 0.164083 9.446648
2009-07-01 09:19:26 51°21.434 2°53.309 24.0131 0.033152 0.169367 9.446648
2009-07-01 09:19:31 51°21.451 2°53.313 24.0083 0.033152 0.169367 9.446648
2009-07-01 09:19:36 51°21.468 2°53.318 23.9969 0.032431 0.165681 9.446648
2009-07-01 09:19:41 51°21.484 2°53.323 23.9942 0.032225 0.164617 9.446648
2009-07-01 09:19:46 51°21.501 2°53.327 23.9893 0.033049 0.168834 9.446648
2009-07-01 09:19:50 51°21.514 2°53.331 24.0064 0.032328 0.165149 9.446648
2009-07-01 09:19:56 51°21.534 2°53.337 24.0014 0.033357 0.170443 9.446648
2009-07-01 09:20:02 51°21.554 2°53.344 24.0275 0.033357 0.170443 9.446648
2009-07-01 09:20:06 51°21.568 2°53.349 24.0139 0.03346 0.170995 9.446648
2009-07-01 09:20:10 51°21.581 2°53.353 24.0189 0.032637 0.166766 9.446648
2009-07-01 09:20:16 51°21.601 2°53.358 24.0034 0.033049 0.168887 9.446648
2009-07-01 09:20:22 51°21.621 2°53.365 24.0139 0.033049 0.168873 9.411824
2009-07-01 09:20:26 51°21.634 2°53.368 24.0175 0.032843 0.167813 9.411824
2009-07-01 09:20:30 51°21.648 2°53.372 24.0111 0.032843 0.167813 9.411824
2009-07-01 09:20:36 51°21.668 2°53.378 24.0116 0.032431 0.165697 9.446648
2009-07-01 09:20:41 51°21.685 2°53.382 24.0157 0.032946 0.168335 9.411824
2009-07-01 09:20:46 51°21.702 2°53.387 24.0102 0.03274 0.167288 9.446648
2009-07-01 09:20:50 51°21.715 2°53.391 24.0182 0.032637 0.166769 9.411824
2009-07-01 09:20:56 51°21.735 2°53.396 24.0161 0.03274 0.167288 9.411824
2009-07-01 09:21:01 51°21.752 2°53.402 24.0253 0.03274 0.167288 9.411824
2009-07-01 09:21:06 51°21.768 2°53.407 24.0107 0.032534 0.166229 9.411824
2009-07-01 09:21:11 51°21.785 2°53.412 24.0178 0.032431 0.165691 9.411824
2009-07-01 09:21:16 51°21.802 2°53.417 24.0341 0.032637 0.166746 9.411824
2009-07-01 09:21:21 51°21.819 2°53.422 24.0236 0.032328 0.165172 9.411824
2009-07-01 09:21:26 51°21.835 2°53.427 24.0153 0.032637 0.166766 9.411824
2009-07-01 09:21:31 51°21.852 2°53.432 24.0236 0.032637 0.166766 9.411824
2009-07-01 09:21:35 51°21.865 2°53.436 24.0097 0.032328 0.16518 9.411824
2009-07-01 09:21:41 51°21.885 2°53.442 24.0208 0.032637 0.166764 9.411824
2009-07-01 09:21:46 51°21.902 2°53.448 24.0286 0.032637 0.166772 9.411824
2009-07-01 09:21:51 51°21.919 2°53.453 24.0165 0.032534 0.166249 9.411824
2009-07-01 09:21:56 51°21.935 2°53.459 24.034 0.03274 0.167304 9.411824
2009-07-01 09:22:01 51°21.952 2°53.464 24.0231 0.03274 0.167304 9.411824
2009-07-01 09:22:06 51°21.969 2°53.47 24.0292 0.032431 0.16573 9.411824
2009-07-01 09:22:11 51°21.985 2°53.475 24.0285 0.032431 0.165735 9.377
2009-07-01 09:22:16 51°22.002 2°53.481 24.0345 0.032123 0.164157 9.377
2009-07-01 09:22:22 51°22.022 2°53.487 24.0223 0.032328 0.165218 9.377
2009-07-01 09:22:26 51°22.035 2°53.492 24.0336 0.032637 0.1668 9.377
2009-07-01 09:22:30 51°22.049 2°53.496 24.0359 0.032637 0.1668 9.377
2009-07-01 09:22:36 51°22.069 2°53.503 24.0206 0.03274 0.167327 9.377
2009-07-01 09:22:42 51°22.089 2°53.509 24.0318 0.032946 0.16838 9.377
2009-07-01 09:22:46 51°22.102 2°53.514 24.046 0.032843 0.167873 9.377
2009-07-01 09:22:50 51°22.115 2°53.518 24.0154 0.032534 0.166304 9.377
2009-07-01 09:22:56 51°22.135 2°53.525 24.0272 0.032946 0.168411 9.377
2009-07-01 09:23:01 51°22.152 2°53.53 24.0313 0.032946 0.168411 9.377
2009-07-01 09:23:06 51°22.169 2°53.536 24.045 0.03274 0.16734 9.377
2009-07-01 09:23:10 51°22.182 2°53.541 24.0418 0.032534 0.166291 9.377
2009-07-01 09:23:16 51°22.202 2°53.547 24.0334 0.032637 0.16681 9.377
2009-07-01 09:23:21 51°22.219 2°53.553 24.0454 0.032431 0.165751 9.377
2009-07-01 09:23:26 51°22.236 2°53.558 24.0353 0.032431 0.16574 9.377
2009-07-01 09:23:31 51°22.252 2°53.564 24.0342 0.032431 0.16574 9.377
2009-07-01 09:23:36 51°22.269 2°53.57 24.0311 0.032123 0.164157 9.377
2009-07-01 09:23:41 51°22.286 2°53.576 24.0437 0.032946 0.168388 9.377
2009-07-01 09:23:46 51°22.303 2°53.581 24.0383 0.033049 0.168937 9.377
2009-07-01 09:23:51 51°22.32 2°53.587 24.0352 0.03274 0.167364 9.342176
2009-07-01 09:23:56 51°22.337 2°53.592 24.0399 0.032534 0.166301 9.342176
2009-07-01 09:24:01 51°22.353 2°53.597 24.0342 0.032534 0.166301 9.342176
2009-07-01 09:24:06 51°22.37 2°53.601 24.0435 0.032328 0.165252 9.342176
2009-07-01 09:24:11 51°22.387 2°53.606 24.0329 0.032637 0.166831 9.342176
2009-07-01 09:24:16 51°22.403 2°53.611 24.0422 0.032431 0.165779 9.342176
2009-07-01 09:24:22 51°22.423 2°53.616 24.037 0.032637 0.166834 9.342176
2009-07-01 09:24:26 51°22.437 2°53.62 24.042 0.032225 0.164727 9.342176
2009-07-01 09:24:31 51°22.454 2°53.625 24.0515 0.032225 0.164727 9.342176
2009-07-01 09:24:35 51°22.467 2°53.629 24.0503 0.03274 0.167379 9.342176
2009-07-01 09:24:41 51°22.487 2°53.634 24.0408 0.032225 0.164755 9.342176
2009-07-01 09:24:46 51°22.504 2°53.639 24.0446 0.032637 0.166865 9.342176
2009-07-01 09:24:51 51°22.521 2°53.644 24.0505 0.032534 0.166342 9.342176
2009-07-01 09:24:56 51°22.538 2°53.649 24.0506 0.032431 0.165812 9.342176
2009-07-01 09:25:02 51°22.558 2°53.654 24.0432 0.032431 0.165812 9.342176
2009-07-01 09:25:06 51°22.572 2°53.658 24.0434 0.032328 0.165285 9.342176
2009-07-01 09:25:11 51°22.589 2°53.663 24.0402 0.032637 0.166862 9.342176
2009-07-01 09:25:16 51°22.605 2°53.668 24.0439 0.032637 0.16686 9.342176
2009-07-01 09:25:22 51°22.626 2°53.674 24.0478 0.032123 0.164215 9.342176
2009-07-01 09:25:26 51°22.639 2°53.678 24.0573 0.032637 0.166854 9.342176
2009-07-01 09:25:30 51°22.653 2°53.682 24.0515 0.032637 0.166854 9.342176
2009-07-01 09:25:36 51°22.674 2°53.687 24.0477 0.032431 0.165805 9.307352
2009-07-01 09:25:41 51°22.691 2°53.691 24.0479 0.032431 0.16581 9.307352
2009-07-01 09:25:46 51°22.707 2°53.696 24.0434 0.032534 0.166335 9.342176
2009-07-01 09:25:50 51°22.721 2°53.7 24.056 0.03274 0.167398 9.307352
2009-07-01 09:25:56 51°22.741 2°53.706 24.0574 0.032328 0.165295 9.307352
2009-07-01 09:26:01 51°22.758 2°53.71 24.0488 0.032328 0.165295 9.307352
2009-07-01 09:26:06 51°22.775 2°53.715 24.0606 0.032328 0.165295 9.307352
2009-07-01 09:26:10 51°22.788 2°53.719 24.0536 0.03202 0.163711 9.307352
2009-07-01 09:26:16 51°22.809 2°53.725 24.0518 0.032123 0.164231 9.307352
2009-07-01 09:26:21 51°22.826 2°53.73 24.0565 0.031917 0.163182 9.307352
2009-07-01 09:26:26 51°22.842 2°53.735 24.0572 0.032534 0.166358 9.307352
2009-07-01 09:26:31 51°22.859 2°53.74 24.0559 0.032534 0.166358 9.307352
2009-07-01 09:26:36 51°22.876 2°53.745 24.0717 0.032225 0.164783 9.307352
2009-07-01 09:26:42 51°22.896 2°53.752 24.067 0.03274 0.167437 9.307352
2009-07-01 09:26:46 51°22.91 2°53.757 24.0668 0.032225 0.164809 9.307352
2009-07-01 09:26:51 51°22.927 2°53.762 24.0534 0.03274 0.167455 9.307352
2009-07-01 09:26:56 51°22.944 2°53.767 24.0525 0.031917 0.163222 9.307352
2009-07-01 09:27:02 51°22.965 2°53.773 24.0482 0.031917 0.163222 9.307352
2009-07-01 09:27:06 51°22.978 2°53.778 24.0604 0.032123 0.164282 9.307352
2009-07-01 09:27:11 51°22.995 2°53.784 24.067 0.032328 0.165339 9.307352
2009-07-01 09:27:15 51°23.008 2°53.788 24.076 0.032843 0.167988 9.307352
2009-07-01 09:27:22 51°23.033 2°53.796 24.0541 0.031917 0.163242 9.272528
2009-07-01 09:27:26 51°23.046 2°53.8 24.0627 0.031917 0.16323 9.272528
2009-07-01 09:27:31 51°23.064 2°53.805 24.0623 0.031917 0.16323 9.272528
2009-07-01 09:27:36 51°23.081 2°53.81 24.0678 0.032123 0.164279 9.272528
2009-07-01 09:27:42 51°23.101 2°53.817 24.0681 0.032123 0.164282 9.272528
2009-07-01 09:27:46 51°23.115 2°53.821 24.068 0.032123 0.164282 9.272528
2009-07-01 09:27:51 51°23.132 2°53.826 24.0593 0.032637 0.166925 9.272528
2009-07-01 09:27:56 51°23.149 2°53.831 24.068 0.032123 0.164287 9.272528
2009-07-01 09:28:01 51°23.166 2°53.836 24.0657 0.032123 0.164287 9.272528
2009-07-01 09:28:06 51°23.183 2°53.84 24.0717 0.032328 0.165342 9.272528
2009-07-01 09:28:11 51°23.2 2°53.845 24.0696 0.032328 0.165342 9.272528
2009-07-01 09:28:16 51°23.217 2°53.85 24.0723 0.03274 0.167463 9.272528
2009-07-01 09:28:21 51°23.235 2°53.855 24.0703 0.032225 0.164829 9.272528
2009-07-01 09:28:26 51°23.252 2°53.86 24.0659 0.031917 0.163242 9.237704
2009-07-01 09:28:31 51°23.269 2°53.865 24.0615 0.031917 0.163242 9.237704
2009-07-01 09:28:36 51°23.286 2°53.869 24.0867 0.032637 0.16694 9.272528
2009-07-01 09:28:42 51°23.306 2°53.876 24.0717 0.032225 0.164842 9.272528
2009-07-01 09:28:46 51°23.32 2°53.88 24.0849 0.031711 0.162203 9.272528
2009-07-01 09:28:50 51°23.334 2°53.885 24.0725 0.032534 0.166438 9.237704
2009-07-01 09:28:56 51°23.354 2°53.891 24.0694 0.032637 0.166971 9.272528
2009-07-01 09:29:02 51°23.374 2°53.897 24.07 0.032637 0.166971 9.272528
2009-07-01 09:29:06 51°23.388 2°53.901 24.0719 0.032225 0.16486 9.272528
2009-07-01 09:29:10 51°23.401 2°53.905 24.0793 0.03202 0.163808 9.272528
2009-07-01 09:29:16 51°23.422 2°53.911 24.0694 0.03202 0.1638 9.237704
2009-07-01 09:29:22 51°23.442 2°53.917 24.0768 0.032637 0.166971 9.237704
2009-07-01 09:29:26 51°23.456 2°53.921 24.0753 0.03202 0.163813 9.237704
2009-07-01 09:29:31 51°23.473 2°53.927 24.0782 0.03202 0.163813 9.237704
2009-07-01 09:29:36 51°23.489 2°53.931 24.0819 0.032637 0.166979 9.237704
2009-07-01 09:29:42 51°23.51 2°53.937 24.0694 0.032534 0.166459 9.237704
2009-07-01 09:29:46 51°23.523 2°53.942 24.0724 0.033563 0.17174 9.237704
2009-07-01 09:29:51 51°23.54 2°53.947 24.0877 0.03202 0.163828 9.237704
2009-07-01 09:29:56 51°23.557 2°53.953 24.0699 0.032946 0.168574 9.237704
2009-07-01 09:30:01 51°23.574 2°53.958 24.0854 0.032946 0.168574 9.237704
2009-07-01 09:30:06 51°23.591 2°53.965 24.0765 0.031814 0.162758 9.237704
2009-07-01 09:30:11 51°23.608 2°53.97 24.0879 0.032225 0.164858 9.237704
2009-07-01 09:30:15 51°23.621 2°53.975 24.0837 0.032534 0.166449 9.237704
2009-07-01 09:30:21 51°23.642 2°53.982 24.0873 0.032534 0.166456 9.20288
2009-07-01 09:30:26 51°23.659 2°53.988 24.0951 0.032843 0.168054 9.237704
2009-07-01 09:30:31 51°23.676 2°53.994 24.0863 0.032843 0.168054 9.237704
2009-07-01 09:30:36 51°23.692 2°54 24.0838 0.032123 0.164356 9.237704
2009-07-01 09:30:41 51°23.709 2°54.005 24.0862 0.032637 0.166997 9.20288
2009-07-01 09:30:46 51°23.727 2°54.011 24.072 0.032328 0.165414 9.20288
2009-07-01 09:30:51 51°23.744 2°54.017 24.0995 0.032225 0.164891 9.20288
2009-07-01 09:30:56 51°23.76 2°54.023 24.0867 0.032637 0.167023 9.20288
2009-07-01 09:31:01 51°23.778 2°54.029 24.0937 0.032637 0.167023 9.20288
2009-07-01 09:31:06 51°23.794 2°54.035 24.0695 0.032225 0.164911 9.20288
2009-07-01 09:31:10 51°23.808 2°54.039 24.0884 0.032534 0.1665 9.20288
2009-07-01 09:31:16 51°23.829 2°54.046 24.0692 0.032123 0.164394 9.20288
2009-07-01 09:31:22 51°23.849 2°54.051 24.0981 0.031814 0.162804 9.20288
2009-07-01 09:31:26 51°23.863 2°54.056 24.0995 0.032843 0.168088 9.20288
2009-07-01 09:31:30 51°23.876 2°54.061 24.1021 0.032843 0.168088 9.20288
2009-07-01 09:31:36 51°23.897 2°54.067 24.0823 0.031711 0.162271 9.20288
2009-07-01 09:31:42 51°23.918 2°54.073 24.0945 0.032225 0.164901 9.20288
2009-07-01 09:31:46 51°23.931 2°54.077 24.099 0.032123 0.164379 9.20288
2009-07-01 09:31:50 51°23.945 2°54.081 24.099 0.032431 0.16597 9.20288
2009-07-01 09:31:56 51°23.965 2°54.087 24.0822 0.031814 0.162804 9.20288
2009-07-01 09:32:02 51°23.986 2°54.094 24.093 0.031814 0.162804 9.20288
2009-07-01 09:32:06 51°24 2°54.098 24.0886 0.033254 0.170204 9.168055
2009-07-01 09:32:11 51°24.017 2°54.104 24.0851 0.032328 0.165457 9.168055
2009-07-01 09:32:16 51°24.034 2°54.109 24.0861 0.032328 0.165452 9.168055
2009-07-01 09:32:21 51°24.051 2°54.116 24.0889 0.031917 0.163336 9.168055
2009-07-01 09:32:26 51°24.068 2°54.122 24.0943 0.032225 0.164924 9.168055
2009-07-01 09:32:31 51°24.085 2°54.128 24.0997 0.032225 0.164924 9.168055
2009-07-01 09:32:36 51°24.102 2°54.134 24.1029 0.032637 0.167044 9.168055
2009-07-01 09:32:41 51°24.119 2°54.14 24.09 0.032431 0.165996 9.168055
2009-07-01 09:32:46 51°24.136 2°54.146 24.0971 0.032637 0.167075 9.168055
2009-07-01 09:32:51 51°24.153 2°54.151 24.0882 0.032328 0.165478 9.168055
2009-07-01 09:32:55 51°24.167 2°54.156 24.103 0.032534 0.166534 9.168055
2009-07-01 09:33:01 51°24.188 2°54.164 24.1083 0.032534 0.166534 9.168055
2009-07-01 09:33:06 51°24.205 2°54.169 24.1044 0.03274 0.167588 9.168055
2009-07-01 09:33:11 51°24.222 2°54.175 24.0989 0.031608 0.161781 9.133231
2009-07-01 09:33:16 51°24.239 2°54.179 24.0922 0.032328 0.165475 9.168055
2009-07-01 09:33:21 51°24.256 2°54.185 24.1096 0.032946 0.168666 9.168055
2009-07-01 09:33:26 51°24.273 2°54.191 24.1069 0.03274 0.167622 9.133231
2009-07-01 09:33:31 51°24.291 2°54.196 24.0993 0.03274 0.167622 9.133231
2009-07-01 09:33:36 51°24.308 2°54.201 24.0903 0.03202 0.163925 9.133231
2009-07-01 09:33:42 51°24.329 2°54.207 24.1053 0.032123 0.164453 9.133231
2009-07-01 09:33:46 51°24.342 2°54.211 24.1065 0.032431 0.166037 9.133231
2009-07-01 09:33:50 51°24.356 2°54.215 24.1109 0.032946 0.168705 9.133231
2009-07-01 09:33:56 51°24.377 2°54.221 24.0972 0.032328 0.165535 9.133231
2009-07-01 09:34:02 51°24.398 2°54.227 24.1128 0.032328 0.165535 9.133231
2009-07-01 09:34:06 51°24.412 2°54.231 24.1115 0.033049 0.169229 9.133231
2009-07-01 09:34:10 51°24.425 2°54.235 24.0984 0.032225 0.164999 9.133231
2009-07-01 09:34:16 51°24.446 2°54.24 24.1087 0.032225 0.164991 9.133231
2009-07-01 09:34:21 51°24.463 2°54.245 24.1158 0.03274 0.16763 9.133231
2009-07-01 09:34:26 51°24.481 2°54.249 24.1108 0.032225 0.164988 9.133231
2009-07-01 09:34:30 51°24.495 2°54.253 24.1079 0.032225 0.164988 9.133231
2009-07-01 09:34:36 51°24.515 2°54.258 24.104 0.032431 0.166047 9.098407
2009-07-01 09:34:41 51°24.533 2°54.262 24.09 0.03202 0.163925 9.133231
2009-07-01 09:34:46 51°24.55 2°54.266 24.1049 0.032431 0.16604 9.098407
2009-07-01 09:34:51 51°24.567 2°54.27 24.0996 0.033254 0.170271 9.098407
2009-07-01 09:34:56 51°24.585 2°54.275 24.1117 0.032431 0.16605 9.098407
2009-07-01 09:35:01 51°24.602 2°54.279 24.1139 0.032431 0.16605 9.098407
2009-07-01 09:35:06 51°24.62 2°54.284 24.1111 0.032328 0.165527 9.098407
2009-07-01 09:35:11 51°24.637 2°54.288 24.1245 0.033049 0.169237 9.098407
2009-07-01 09:35:16 51°24.654 2°54.293 24.1163 0.03202 0.163958 9.098407
2009-07-01 09:35:21 51°24.672 2°54.297 24.1077 0.033255 0.170308 9.098407
2009-07-01 09:35:26 51°24.689 2°54.301 24.122 0.032431 0.166083 9.098407
2009-07-01 09:35:31 51°24.706 2°54.305 24.0988 0.032431 0.166083 9.098407
2009-07-01 09:35:35 51°24.72 2°54.308 24.1182 0.033152 0.169779 9.098407
2009-07-01 09:35:41 51°24.741 2°54.314 24.1124 0.032123 0.164496 9.098407
2009-07-01 09:35:46 51°24.758 2°54.317 24.1222 0.032637 0.167151 9.098407
2009-07-01 09:35:51 51°24.776 2°54.322 24.127 0.032123 0.164519 9.063583
2009-07-01 09:35:56 51°24.793 2°54.325 24.1114 0.031917 0.163458 9.098407
2009-07-01 09:36:02 51°24.814 2°54.33 24.1218 0.031917 0.163458 9.098407
2009-07-01 09:36:06 51°24.828 2°54.332 24.1292 0.033563 0.171923 9.063583
2009-07-01 09:36:11 51°24.845 2°54.337 24.1335 0.032534 0.166635 9.063583
2009-07-01 09:36:16 51°24.862 2°54.34 24.1213 0.032534 0.16664 9.063583
2009-07-01 09:36:21 51°24.88 2°54.344 24.1281 0.032431 0.16612 9.063583
2009-07-01 09:36:26 51°24.897 2°54.348 24.1136 0.032637 0.16718 9.063583
2009-07-01 09:36:31 51°24.915 2°54.351 24.1205 0.032637 0.16718 9.063583
2009-07-01 09:36:36 51°24.932 2°54.356 24.1189 0.032328 0.165594 9.063583
2009-07-01 09:36:42 51°24.953 2°54.36 24.1205 0.032328 0.165596 9.063583
2009-07-01 09:36:46 51°24.966 2°54.362 24.1259 0.032431 0.16614 9.063583
2009-07-01 09:36:50 51°24.98 2°54.366 24.1078 0.032225 0.165076 9.063583
2009-07-01 09:36:56 51°25 2°54.37 24.1227 0.032431 0.166138 9.063583
2009-07-01 09:37:01 51°25.018 2°54.375 24.1252 0.032431 0.166138 9.063583
2009-07-01 09:37:06 51°25.035 2°54.379 24.1353 0.032534 0.16669 9.063583
2009-07-01 09:37:10 51°25.049 2°54.383 24.1382 0.033049 0.169345 9.028759
2009-07-01 09:37:16 51°25.07 2°54.389 24.1327 0.032225 0.165125 9.028759
2009-07-01 09:37:22 51°25.09 2°54.394 24.1424 0.032431 0.16619 9.028759
2009-07-01 09:37:26 51°25.104 2°54.397 24.1182 0.032637 0.16724 9.063583
2009-07-01 09:37:30 51°25.118 2°54.4 24.1171 0.032637 0.16724 9.063583
2009-07-01 09:37:36 51°25.139 2°54.406 24.1225 0.031711 0.162465 9.028759
2009-07-01 09:37:41 51°25.156 2°54.41 24.1414 0.033049 0.169351 9.028759
2009-07-01 09:37:46 51°25.173 2°54.415 24.1076 0.032637 0.16725 9.028759
2009-07-01 09:37:51 51°25.19 2°54.419 24.1417 0.03274 0.167797 9.028759
2009-07-01 09:37:56 51°25.208 2°54.424 24.1267 0.032843 0.168329 9.028759
2009-07-01 09:38:02 51°25.229 2°54.429 24.1322 0.032843 0.168329 9.028759
2009-07-01 09:38:06 51°25.243 2°54.433 24.1323 0.032225 0.16514 8.993935
2009-07-01 09:38:11 51°25.26 2°54.438 24.1322 0.03346 0.171501 9.028759
2009-07-01 09:38:17 51°25.281 2°54.443 24.1441 0.032843 0.168337 9.028759
2009-07-01 09:38:21 51°25.295 2°54.447 24.1297 0.033152 0.16992 8.993935
2009-07-01 09:38:26 51°25.312 2°54.45 24.1442 0.033049 0.169385 9.028759
2009-07-01 09:38:31 51°25.329 2°54.454 24.1315 0.033049 0.169385 9.028759
2009-07-01 09:38:36 51°25.347 2°54.457 24.1308 0.032843 0.168324 8.993935
2009-07-01 09:38:42 51°25.368 2°54.461 24.1336 0.032637 0.167263 9.028759
2009-07-01 09:38:46 51°25.382 2°54.463 24.1311 0.032123 0.164617 8.993935
2009-07-01 09:38:51 51°25.399 2°54.466 24.1391 0.033152 0.169917 8.993935
2009-07-01 09:38:56 51°25.417 2°54.468 24.1464 0.03274 0.167808 8.993935
2009-07-01 09:39:02 51°25.438 2°54.471 24.1291 0.03274 0.167808 8.993935
2009-07-01 09:39:06 51°25.452 2°54.474 24.1258 0.032225 0.165163 8.993935
2009-07-01 09:39:10 51°25.466 2°54.475 24.1163 0.032534 0.166744 8.993935
2009-07-01 09:39:16 51°25.487 2°54.478 24.1317 0.032843 0.168342 8.993935
2009-07-01 09:39:21 51°25.504 2°54.481 24.1243 0.033152 0.169954 8.959111
2009-07-01 09:39:26 51°25.522 2°54.484 24.1237 0.032225 0.165189 8.959111
2009-07-01 09:39:30 51°25.536 2°54.487 24.1284 0.032225 0.165189 8.959111
2009-07-01 09:39:36 51°25.557 2°54.493 24.1025 0.032225 0.165186 8.959111
2009-07-01 09:39:41 51°25.574 2°54.499 24.111 0.031505 0.161472 8.959111
2009-07-01 09:39:46 51°25.591 2°54.505 24.1015 0.032534 0.166755 8.959111
2009-07-01 09:39:50 51°25.605 2°54.511 24.1032 0.031093 0.159353 8.959111
2009-07-01 09:39:56 51°25.625 2°54.523 24.0822 0.031608 0.161993 8.993935
2009-07-01 09:40:02 51°25.644 2°54.535 24.1057 0.031608 0.161993 8.993935
2009-07-01 09:40:06 51°25.657 2°54.544 24.1072 0.031711 0.162528 8.959111
2009-07-01 09:40:10 51°25.671 2°54.553 24.1332 0.031711 0.162536 8.959111
2009-07-01 09:40:16 51°25.69 2°54.567 24.1407 0.034489 0.176885 8.959111
2009-07-01 09:40:22 51°25.709 2°54.582 24.1531 0.03202 0.164195 8.993935
2009-07-01 09:40:26 51°25.722 2°54.591 24.0979 0.033255 0.170537 8.959111
2009-07-01 09:40:31 51°25.739 2°54.6 24.1538 0.033255 0.170537 8.959111
2009-07-01 09:40:36 51°25.755 2°54.611 24.1449 0.035004 0.179614 8.959111
2009-07-01 09:40:42 51°25.775 2°54.621 24.1436 0.033975 0.17438 8.959111
2009-07-01 09:40:46 51°25.788 2°54.625 24.1108 0.034181 0.175417 8.959111
2009-07-01 09:40:51 51°25.805 2°54.63 24.1458 0.03346 0.171656 8.959111
2009-07-01 09:40:56 51°25.823 2°54.635 24.1198 0.034181 0.175362 8.959111
2009-07-01 09:41:02 51°25.843 2°54.639 24.1264 0.034181 0.175362 8.959111
2009-07-01 09:41:06 51°25.857 2°54.641 24.1181 0.03346 0.171635 8.959111
2009-07-01 09:41:11 51°25.874 2°54.643 24.1247 0.033666 0.172693 8.959111
2009-07-01 09:41:15 51°25.888 2°54.645 24.1236 0.033255 0.170577 8.959111
2009-07-01 09:41:21 51°25.908 2°54.645 24.1258 0.033255 0.170572 8.924287
2009-07-01 09:41:26 51°25.926 2°54.646 24.1353 0.033049 0.169499 8.959111
2009-07-01 09:41:31 51°25.943 2°54.646 24.1324 0.033049 0.169499 8.959111
2009-07-01 09:41:36 51°25.961 2°54.646 24.1322 0.033152 0.170034 8.959111
2009-07-01 09:41:41 51°25.978 2°54.646 24.1285 0.03274 0.16791 8.924287
2009-07-01 09:41:46 51°25.995 2°54.645 24.1265 0.033255 0.170564 8.924287
2009-07-01 09:41:51 51°26.012 2°54.645 24.114 0.032946 0.168974 8.924287
2009-07-01 09:41:56 51°26.03 2°54.645 24.1357 0.03274 0.167913 8.924287
2009-07-01 09:42:01 51°26.047 2°54.645 24.1271 0.03274 0.167913 8.924287
2009-07-01 09:42:06 51°26.064 2°54.645 24.1333 0.032328 0.16579 8.924287
2009-07-01 09:42:10 51°26.078 2°54.646 24.1357 0.03274 0.167905 8.924287
2009-07-01 09:42:16 51°26.099 2°54.646 24.1454 0.033152 0.170031 8.924287
2009-07-01 09:42:22 51°26.119 2°54.645 24.1495 0.032534 0.166851 8.924287
2009-07-01 09:42:26 51°26.133 2°54.644 24.1322 0.032843 0.168453 8.924287
2009-07-01 09:42:30 51°26.146 2°54.644 24.139 0.032843 0.168453 8.924287
2009-07-01 09:42:36 51°26.167 2°54.642 24.1379 0.033152 0.170045 8.889463
2009-07-01 09:42:42 51°26.187 2°54.641 24.1332 0.033255 0.170585 8.889463
2009-07-01 09:42:46 51°26.201 2°54.641 24.1281 0.03346 0.171654 8.889463
2009-07-01 09:42:50 51°26.214 2°54.64 24.1428 0.032843 0.168474 8.889463
2009-07-01 09:42:56 51°26.235 2°54.64 24.1296 0.033563 0.172195 8.889463
2009-07-01 09:43:02 51°26.255 2°54.64 24.1444 0.033563 0.172195 8.889463
2009-07-01 09:43:06 51°26.269 2°54.641 24.1438 0.032843 0.168487 8.889463
2009-07-01 09:43:11 51°26.286 2°54.642 24.1397 0.032946 0.169011 8.889463
2009-07-01 09:43:16 51°26.303 2°54.642 24.1403 0.033255 0.170604 8.889463
2009-07-01 09:43:22 51°26.324 2°54.643 24.1333 0.03346 0.171667 8.889463
2009-07-01 09:43:26 51°26.337 2°54.643 24.1508 0.032843 0.168498 8.854639
2009-07-01 09:43:31 51°26.355 2°54.644 24.1442 0.032843 0.168498 8.854639
2009-07-01 09:43:36 51°26.372 2°54.645 24.1346 0.032946 0.169022 8.889463
2009-07-01 09:43:41 51°26.389 2°54.645 24.1442 0.032946 0.169014 8.854639
2009-07-01 09:43:46 51°26.406 2°54.646 24.1469 0.032328 0.165832 8.854639
2009-07-01 09:43:50 51°26.42 2°54.647 24.1465 0.032431 0.166358 8.854639
2009-07-01 09:43:56 51°26.441 2°54.648 24.1519 0.032946 0.169006 8.854639
2009-07-01 09:44:01 51°26.458 2°54.648 24.1378 0.032946 0.169006 8.854639
2009-07-01 09:44:06 51°26.475 2°54.648 24.1432 0.032843 0.168484 8.854639
2009-07-01 09:44:10 51°26.489 2°54.649 24.1516 0.032946 0.169014 8.854639
2009-07-01 09:44:16 51°26.509 2°54.649 24.1512 0.032328 0.165839 8.819815
2009-07-01 09:44:21 51°26.526 2°54.649 24.152 0.032843 0.168498 8.854639
2009-07-01 09:44:26 51°26.543 2°54.65 24.1494 0.033152 0.170101 8.819815
2009-07-01 09:44:31 51°26.561 2°54.651 24.1526 0.033152 0.170101 8.819815
2009-07-01 09:44:36 51°26.578 2°54.651 24.1531 0.03274 0.167994 8.819815
2009-07-01 09:44:41 51°26.595 2°54.652 24.1496 0.032637 0.16747 8.819815
2009-07-01 09:44:46 51°26.612 2°54.653 24.1525 0.032843 0.168527 8.819815
2009-07-01 09:44:51 51°26.629 2°54.653 24.1529 0.033357 0.171185 8.819815
2009-07-01 09:44:56 51°26.646 2°54.654 24.1478 0.032843 0.168545 8.819815
2009-07-01 09:45:02 51°26.667 2°54.655 24.156 0.032843 0.168545 8.819815
2009-07-01 09:45:06 51°26.681 2°54.656 24.1556 0.032946 0.169078 8.819815
2009-07-01 09:45:11 51°26.698 2°54.656 24.1479 0.032946 0.169072 8.819815
2009-07-01 09:45:15 51°26.712 2°54.656 24.1556 0.032946 0.169078 8.784991
2009-07-01 09:45:22 51°26.736 2°54.657 24.156 0.032534 0.166955 8.784991
2009-07-01 09:45:26 51°26.75 2°54.657 24.1538 0.032534 0.166955 8.784991
2009-07-01 09:45:31 51°26.768 2°54.657 24.1501 0.032534 0.166955 8.784991
2009-07-01 09:45:36 51°26.785 2°54.657 24.1608 0.032534 0.166955 8.784991
2009-07-01 09:45:41 51°26.802 2°54.657 24.1582 0.032431 0.166428 8.784991
2009-07-01 09:45:46 51°26.819 2°54.657 24.1589 0.033255 0.170676 8.784991
2009-07-01 09:45:50 51°26.833 2°54.658 24.153 0.03202 0.164324 8.784991
2009-07-01 09:45:56 51°26.854 2°54.658 24.1635 0.032946 0.169101 8.784991
2009-07-01 09:46:01 51°26.871 2°54.659 24.1665 0.032946 0.169101 8.784991
2009-07-01 09:46:06 51°26.889 2°54.659 24.1523 0.032843 0.16859 8.750167
2009-07-01 09:46:11 51°26.906 2°54.659 24.1619 0.032431 0.166465 8.750167
2009-07-01 09:46:16 51°26.923 2°54.659 24.1602 0.033255 0.170711 8.750167
2009-07-01 09:46:21 51°26.94 2°54.659 24.1485 0.032843 0.16859 8.784991
2009-07-01 09:46:26 51°26.958 2°54.659 24.1623 0.033152 0.170186 8.750167
2009-07-01 09:46:31 51°26.975 2°54.659 24.1643 0.033152 0.170186 8.750167
2009-07-01 09:46:35 51°26.989 2°54.66 24.1591 0.033049 0.169658 8.750167
2009-07-01 09:46:41 51°27.01 2°54.66 24.1697 0.032843 0.168595 8.750167
2009-07-01 09:46:46 51°27.027 2°54.66 24.1604 0.032534 0.16701 8.750167
2009-07-01 09:46:51 51°27.045 2°54.66 24.1566 0.032225 0.165416 8.750167
2009-07-01 09:46:56 51°27.062 2°54.66 24.1588 0.032843 0.168592 8.715343
2009-07-01 09:47:01 51°27.079 2°54.661 24.1671 0.032843 0.168592 8.715343
2009-07-01 09:47:06 51°27.096 2°54.661 24.1528 0.032637 0.167535 8.750167
2009-07-01 09:47:11 51°27.114 2°54.661 24.1761 0.032946 0.169128 8.750167
2009-07-01 09:47:16 51°27.131 2°54.662 24.1656 0.032637 0.167543 8.750167
2009-07-01 09:47:22 51°27.152 2°54.661 24.1656 0.032123 0.164899 8.715343
2009-07-01 09:47:26 51°27.166 2°54.661 24.1698 0.032123 0.164907 8.715343
2009-07-01 09:47:31 51°27.183 2°54.661 24.1594 0.032123 0.164907 8.715343
2009-07-01 09:47:36 51°27.2 2°54.661 24.161 0.032225 0.16545 8.715343
2009-07-01 09:47:42 51°27.221 2°54.66 24.1719 0.032843 0.168643 8.715343
2009-07-01 09:47:46 51°27.235 2°54.66 24.1685 0.032225 0.165481 8.715343
2009-07-01 09:47:50 51°27.249 2°54.66 24.1673 0.032637 0.167603 8.680519
2009-07-01 09:47:56 51°27.27 2°54.66 24.1676 0.032637 0.167611 8.680519
2009-07-01 09:48:01 51°27.287 2°54.659 24.1672 0.032637 0.167611 8.680519
2009-07-01 09:48:06 51°27.304 2°54.659 24.1693 0.032328 0.166034 8.680519
2009-07-01 09:48:10 51°27.318 2°54.658 24.1741 0.032946 0.169221 8.680519
2009-07-01 09:48:16 51°27.339 2°54.657 24.1674 0.03274 0.16816 8.680519
2009-07-01 09:48:21 51°27.356 2°54.657 24.1761 0.03274 0.168155 8.680519
2009-07-01 09:48:26 51°27.374 2°54.657 24.1664 0.03202 0.164434 8.680519
2009-07-01 09:48:30 51°27.387 2°54.657 24.1624 0.03202 0.164434 8.680519
2009-07-01 09:48:36 51°27.408 2°54.656 24.1807 0.032328 0.166023 8.680519
2009-07-01 09:48:41 51°27.425 2°54.657 24.1751 0.03274 0.168157 8.680519
2009-07-01 09:48:46 51°27.443 2°54.656 24.1755 0.032946 0.169223 8.680519
2009-07-01 09:48:51 51°27.46 2°54.656 24.184 0.032843 0.168706 8.680519
2009-07-01 09:48:56 51°27.477 2°54.656 24.1839 0.03274 0.168178 8.680519
2009-07-01 09:49:01 51°27.495 2°54.656 24.1796 0.03274 0.168178 8.680519
2009-07-01 09:49:06 51°27.512 2°54.656 24.1758 0.032123 0.164992 8.645695
2009-07-01 09:49:11 51°27.529 2°54.656 24.1783 0.032225 0.165522 8.645695
2009-07-01 09:49:15 51°27.543 2°54.656 24.1801 0.032946 0.169239 8.645695
2009-07-01 09:49:21 51°27.564 2°54.656 24.1855 0.033152 0.170317 8.645695
2009-07-01 09:49:26 51°27.581 2°54.656 24.1618 0.032431 0.1666 8.645695
2009-07-01 09:49:31 51°27.598 2°54.656 24.1846 0.032431 0.1666 8.645695
2009-07-01 09:49:37 51°27.619 2°54.656 24.175 0.032123 0.165007 8.645695
2009-07-01 09:49:42 51°27.636 2°54.656 24.186 0.03274 0.168191 8.645695
2009-07-01 09:49:46 51°27.65 2°54.656 24.1815 0.032534 0.167125 8.645695
2009-07-01 09:49:51 51°27.668 2°54.656 24.1787 0.032328 0.16606 8.645695
2009-07-01 09:49:56 51°27.685 2°54.656 24.185 0.032843 0.168719 8.645695
2009-07-01 09:50:02 51°27.706 2°54.657 24.1917 0.032843 0.168719 8.645695
2009-07-01 09:50:06 51°27.72 2°54.657 24.1791 0.032328 0.166073 8.645695
2009-07-01 09:50:11 51°27.737 2°54.657 24.1898 0.032534 0.167131 8.610871
2009-07-01 09:50:16 51°27.755 2°54.657 24.1882 0.032225 0.165548 8.610871
2009-07-01 09:50:21 51°27.772 2°54.657 24.184 0.033152 0.170335 8.645695
2009-07-01 09:50:26 51°27.79 2°54.657 24.1837 0.032843 0.168748 8.610871
2009-07-01 09:50:30 51°27.804 2°54.657 24.1748 0.032843 0.168748 8.610871
2009-07-01 09:50:36 51°27.825 2°54.657 24.1815 0.031917 0.163971 8.610871
2009-07-01 09:50:41 51°27.843 2°54.658 24.1929 0.032328 0.166094 8.610871
2009-07-01 09:50:46 51°27.86 2°54.658 24.1884 0.032637 0.167695 8.610871
2009-07-01 09:50:50 51°27.874 2°54.659 24.2038 0.032637 0.167713 8.610871
2009-07-01 09:50:56 51°27.895 2°54.66 24.1898 0.03274 0.168252 8.576047
2009-07-01 09:51:02 51°27.916 2°54.66 24.1932 0.03274 0.168252 8.576047
2009-07-01 09:51:06 51°27.93 2°54.66 24.1934 0.03202 0.164552 8.576047
2009-07-01 09:51:10 51°27.944 2°54.66 24.1961 0.032637 0.167742 8.576047
2009-07-01 09:51:16 51°27.965 2°54.66 24.1898 0.032534 0.167227 8.576047
2009-07-01 09:51:22 51°27.987 2°54.66 24.191 0.03202 0.164568 8.576047
2009-07-01 09:51:26 51°28.001 2°54.66 24.1928 0.032534 0.167212 8.576047
2009-07-01 09:51:30 51°28.014 2°54.661 24.1862 0.032534 0.167212 8.576047
2009-07-01 09:51:36 51°28.036 2°54.661 24.194 0.03274 0.168265 8.576047
2009-07-01 09:51:42 51°28.057 2°54.662 24.2019 0.032431 0.166668 8.576047
2009-07-01 09:51:46 51°28.071 2°54.663 24.1938 0.032328 0.166143 8.576047
2009-07-01 09:51:50 51°28.085 2°54.663 24.1942 0.032534 0.167204 8.541223
2009-07-01 09:51:56 51°28.106 2°54.663 24.2104 0.033563 0.172522 8.576047
2009-07-01 09:52:02 51°28.127 2°54.664 24.203 0.033563 0.172522 8.576047
2009-07-01 09:52:06 51°28.141 2°54.665 24.1919 0.032431 0.166694 8.541223
2009-07-01 09:52:10 51°28.155 2°54.665 24.2065 0.032637 0.167758 8.541223
2009-07-01 09:52:16 51°28.176 2°54.665 24.204 0.032534 0.167233 8.541223
2009-07-01 09:52:21 51°28.193 2°54.665 24.1934 0.033152 0.17044 8.541223
2009-07-01 09:52:26 51°28.211 2°54.666 24.1999 0.032637 0.167784 8.541223
2009-07-01 09:52:31 51°28.228 2°54.666 24.1981 0.032637 0.167784 8.541223
2009-07-01 09:52:36 51°28.245 2°54.666 24.1974 0.032637 0.167779 8.541223
2009-07-01 09:52:41 51°28.263 2°54.666 24.2055 0.032431 0.166715 8.541223
2009-07-01 09:52:46 51°28.28 2°54.667 24.1847 0.032225 0.165639 8.541223
2009-07-01 09:52:51 51°28.298 2°54.667 24.2008 0.032123 0.165108 8.506398
2009-07-01 09:52:56 51°28.315 2°54.668 24.198 0.032431 0.166697 8.506398
2009-07-01 09:53:01 51°28.333 2°54.669 24.2101 0.032431 0.166697 8.506398
2009-07-01 09:53:06 51°28.35 2°54.67 24.2093 0.032637 0.167761 8.506398
2009-07-01 09:53:11 51°28.368 2°54.67 24.2005 0.033152 0.170426 8.506398
2009-07-01 09:53:16 51°28.385 2°54.671 24.1989 0.032123 0.165124 8.506398
2009-07-01 09:53:21 51°28.403 2°54.672 24.209 0.032637 0.167777 8.506398
2009-07-01 09:53:26 51°28.42 2°54.672 24.2059 0.032431 0.166718 8.506398
2009-07-01 09:53:31 51°28.438 2°54.673 24.2144 0.032431 0.166718 8.506398
2009-07-01 09:53:35 51°28.452 2°54.674 24.1995 0.032534 0.167254 8.506398
2009-07-01 09:53:41 51°28.473 2°54.674 24.2053 0.032225 0.16567 8.471574